<?xml version="1.0" encoding="UTF-8" standalone="no" ?>
<gpx xmlns="http://www.topografix.com/GPX/1/1" xmlns:xsi="http://www.w3.org/2001/XMLSchema-instance" xsi:schemaLocation="http://www.topografix.com/GPX/1/1 http://www.topografix.com/GPX/1/1/gpx.xsd" version="1.1" creator="VisuGPX - https://www.visugpx.com">
  <metadata>
    <name>Gilhoc Grozon Matras</name>
    <desc><![CDATA[Effectuée il y a 2 ans mais à valider sur le terrain.]]></desc>
  </metadata>
  <trk>
    <name><![CDATA[Gilhoc Grozon Matras_1]]></name>
    <trkseg>
      <trkpt lat="44.98633" lon="4.68539">
        <ele>481</ele>
        <time>2002-02-17T12:28:15Z</time>
        <extensions>
          <visugpx:TrkExtension xmlns:visugpx="https://www.visugpx.com/editgpx/">
            <visugpx:node>21</visugpx:node>
            </visugpx:TrkExtension>
        </extensions>
      </trkpt>
      <trkpt lat="44.98621" lon="4.6856">
        <ele>479</ele>
        <time>2002-02-17T12:28:35Z</time>
      </trkpt>
      <trkpt lat="44.98605" lon="4.6858">
        <ele>479</ele>
        <time>2002-02-17T12:28:55Z</time>
      </trkpt>
      <trkpt lat="44.98592" lon="4.68604">
        <ele>481</ele>
        <time>2002-02-17T12:29:15Z</time>
      </trkpt>
      <trkpt lat="44.98592" lon="4.68634">
        <ele>484</ele>
        <time>2002-02-17T12:29:35Z</time>
      </trkpt>
      <trkpt lat="44.98595" lon="4.68663">
        <ele>487</ele>
        <time>2002-02-17T12:29:55Z</time>
      </trkpt>
      <trkpt lat="44.98599" lon="4.68694">
        <ele>489</ele>
        <time>2002-02-17T12:30:15Z</time>
      </trkpt>
      <trkpt lat="44.98601" lon="4.68728">
        <ele>491</ele>
        <time>2002-02-17T12:30:35Z</time>
      </trkpt>
      <trkpt lat="44.98608" lon="4.68758">
        <ele>491</ele>
        <time>2002-02-17T12:30:55Z</time>
      </trkpt>
      <trkpt lat="44.98612" lon="4.68788">
        <ele>490</ele>
        <time>2002-02-17T12:31:15Z</time>
      </trkpt>
      <trkpt lat="44.98612" lon="4.68792">
        <ele>490</ele>
        <time>2002-02-17T12:31:35Z</time>
      </trkpt>
      <trkpt lat="44.98612" lon="4.68803">
        <ele>489</ele>
        <time>2002-02-17T12:31:55Z</time>
      </trkpt>
      <trkpt lat="44.98612" lon="4.68798">
        <ele>489</ele>
        <time>2002-02-17T12:32:15Z</time>
      </trkpt>
      <trkpt lat="44.98621" lon="4.68799">
        <ele>489</ele>
        <time>2002-02-17T12:32:35Z</time>
      </trkpt>
      <trkpt lat="44.98622" lon="4.68799">
        <ele>489</ele>
        <time>2002-02-17T12:32:55Z</time>
      </trkpt>
      <trkpt lat="44.98622" lon="4.68799">
        <ele>489</ele>
        <time>2002-02-17T12:33:15Z</time>
      </trkpt>
      <trkpt lat="44.98624" lon="4.68799">
        <ele>488</ele>
        <time>2002-02-17T12:33:35Z</time>
      </trkpt>
      <trkpt lat="44.98622" lon="4.68801">
        <ele>488</ele>
        <time>2002-02-17T12:33:55Z</time>
      </trkpt>
      <trkpt lat="44.98621" lon="4.68799">
        <ele>489</ele>
        <time>2002-02-17T12:34:15Z</time>
      </trkpt>
      <trkpt lat="44.98618" lon="4.68798">
        <ele>489</ele>
        <time>2002-02-17T12:34:35Z</time>
      </trkpt>
      <trkpt lat="44.98616" lon="4.68798">
        <ele>489</ele>
        <time>2002-02-17T12:34:55Z</time>
      </trkpt>
      <trkpt lat="44.98601" lon="4.68797">
        <ele>490</ele>
        <time>2002-02-17T12:35:15Z</time>
      </trkpt>
      <trkpt lat="44.98577" lon="4.68802">
        <ele>492</ele>
        <time>2002-02-17T12:35:35Z</time>
      </trkpt>
      <trkpt lat="44.98556" lon="4.68809">
        <ele>493</ele>
        <time>2002-02-17T12:35:55Z</time>
      </trkpt>
      <trkpt lat="44.98538" lon="4.68823">
        <ele>493</ele>
        <time>2002-02-17T12:36:15Z</time>
      </trkpt>
      <trkpt lat="44.98521" lon="4.6884">
        <ele>494</ele>
        <time>2002-02-17T12:36:35Z</time>
      </trkpt>
      <trkpt lat="44.98511" lon="4.68856">
        <ele>494</ele>
        <time>2002-02-17T12:36:55Z</time>
      </trkpt>
      <trkpt lat="44.98502" lon="4.68876">
        <ele>492</ele>
        <time>2002-02-17T12:37:15Z</time>
      </trkpt>
      <trkpt lat="44.98496" lon="4.68885">
        <ele>491</ele>
        <time>2002-02-17T12:37:35Z</time>
      </trkpt>
      <trkpt lat="44.98483" lon="4.68901">
        <ele>490</ele>
        <time>2002-02-17T12:37:55Z</time>
      </trkpt>
      <trkpt lat="44.9847" lon="4.68924">
        <ele>494</ele>
        <time>2002-02-17T12:38:15Z</time>
      </trkpt>
      <trkpt lat="44.98453" lon="4.68941">
        <ele>497</ele>
        <time>2002-02-17T12:38:35Z</time>
      </trkpt>
      <trkpt lat="44.98447" lon="4.68969">
        <ele>499</ele>
        <time>2002-02-17T12:38:55Z</time>
      </trkpt>
      <trkpt lat="44.98455" lon="4.68985">
        <ele>500</ele>
        <time>2002-02-17T12:39:15Z</time>
      </trkpt>
      <trkpt lat="44.9847" lon="4.69001">
        <ele>501</ele>
        <time>2002-02-17T12:39:35Z</time>
      </trkpt>
      <trkpt lat="44.9847" lon="4.6902">
        <ele>503</ele>
        <time>2002-02-17T12:39:55Z</time>
      </trkpt>
      <trkpt lat="44.98466" lon="4.69039">
        <ele>506</ele>
        <time>2002-02-17T12:40:15Z</time>
      </trkpt>
      <trkpt lat="44.98462" lon="4.6906">
        <ele>510</ele>
        <time>2002-02-17T12:40:35Z</time>
      </trkpt>
      <trkpt lat="44.98462" lon="4.69082">
        <ele>513</ele>
        <time>2002-02-17T12:40:55Z</time>
      </trkpt>
      <trkpt lat="44.98458" lon="4.69103">
        <ele>516</ele>
        <time>2002-02-17T12:41:15Z</time>
      </trkpt>
      <trkpt lat="44.98455" lon="4.69127">
        <ele>520</ele>
        <time>2002-02-17T12:41:35Z</time>
      </trkpt>
      <trkpt lat="44.98449" lon="4.69142">
        <ele>523</ele>
        <time>2002-02-17T12:41:55Z</time>
      </trkpt>
      <trkpt lat="44.98443" lon="4.69157">
        <ele>525</ele>
        <time>2002-02-17T12:42:15Z</time>
      </trkpt>
      <trkpt lat="44.98438" lon="4.69172">
        <ele>528</ele>
        <time>2002-02-17T12:42:35Z</time>
      </trkpt>
      <trkpt lat="44.98434" lon="4.69195">
        <ele>531</ele>
        <time>2002-02-17T12:42:55Z</time>
      </trkpt>
      <trkpt lat="44.98433" lon="4.69219">
        <ele>534</ele>
        <time>2002-02-17T12:43:15Z</time>
      </trkpt>
      <trkpt lat="44.9844" lon="4.69241">
        <ele>536</ele>
        <time>2002-02-17T12:43:35Z</time>
      </trkpt>
      <trkpt lat="44.98453" lon="4.69254">
        <ele>537</ele>
        <time>2002-02-17T12:43:55Z</time>
      </trkpt>
      <trkpt lat="44.98449" lon="4.69264">
        <ele>536.5</ele>
      </trkpt>
      <trkpt lat="44.98435" lon="4.69286">
        <ele>540.5</ele>
      </trkpt>
      <trkpt lat="44.98424" lon="4.69313">
        <ele>544.8</ele>
      </trkpt>
      <trkpt lat="44.98438" lon="4.69346">
        <ele>548.1</ele>
      </trkpt>
      <trkpt lat="44.98451" lon="4.6938">
        <ele>551.8</ele>
      </trkpt>
      <trkpt lat="44.98467" lon="4.69376">
        <ele>549.4</ele>
      </trkpt>
      <trkpt lat="44.98487" lon="4.69368">
        <ele>546</ele>
        <time>2002-02-17T12:56:55Z</time>
      </trkpt>
      <trkpt lat="44.98504" lon="4.69355">
        <ele>543</ele>
        <time>2002-02-17T12:57:15Z</time>
      </trkpt>
      <trkpt lat="44.98528" lon="4.69363">
        <ele>541</ele>
        <time>2002-02-17T12:57:35Z</time>
      </trkpt>
      <trkpt lat="44.98545" lon="4.69386">
        <ele>539</ele>
        <time>2002-02-17T12:57:54Z</time>
      </trkpt>
      <trkpt lat="44.98545" lon="4.69414">
        <ele>540</ele>
        <time>2002-02-17T12:58:14Z</time>
      </trkpt>
      <trkpt lat="44.98547" lon="4.69436">
        <ele>539</ele>
        <time>2002-02-17T12:58:34Z</time>
      </trkpt>
      <trkpt lat="44.9855" lon="4.69461">
        <ele>538</ele>
        <time>2002-02-17T12:58:54Z</time>
      </trkpt>
      <trkpt lat="44.98554" lon="4.69488">
        <ele>537</ele>
        <time>2002-02-17T12:59:14Z</time>
      </trkpt>
      <trkpt lat="44.98556" lon="4.69511">
        <ele>535</ele>
        <time>2002-02-17T12:59:34Z</time>
      </trkpt>
      <trkpt lat="44.98548" lon="4.69531">
        <ele>538</ele>
        <time>2002-02-17T12:59:54Z</time>
      </trkpt>
      <trkpt lat="44.9853" lon="4.69549">
        <ele>544</ele>
        <time>2002-02-17T13:00:14Z</time>
      </trkpt>
      <trkpt lat="44.98513" lon="4.69567">
        <ele>549</ele>
        <time>2002-02-17T13:00:34Z</time>
      </trkpt>
      <trkpt lat="44.985" lon="4.69559">
        <ele>554</ele>
        <time>2002-02-17T13:00:54Z</time>
      </trkpt>
      <trkpt lat="44.98496" lon="4.69539">
        <ele>556</ele>
        <time>2002-02-17T13:01:14Z</time>
      </trkpt>
      <trkpt lat="44.98483" lon="4.69539">
        <ele>561</ele>
        <time>2002-02-17T13:01:34Z</time>
      </trkpt>
      <trkpt lat="44.98468" lon="4.69548">
        <ele>564</ele>
        <time>2002-02-17T13:01:54Z</time>
      </trkpt>
      <trkpt lat="44.98453" lon="4.69553">
        <ele>566</ele>
        <time>2002-02-17T13:02:14Z</time>
      </trkpt>
      <trkpt lat="44.98436" lon="4.69557">
        <ele>569</ele>
        <time>2002-02-17T13:02:34Z</time>
      </trkpt>
      <trkpt lat="44.98417" lon="4.69559">
        <ele>572</ele>
        <time>2002-02-17T13:02:54Z</time>
      </trkpt>
      <trkpt lat="44.98397" lon="4.69561">
        <ele>575</ele>
        <time>2002-02-17T13:03:34Z</time>
      </trkpt>
      <trkpt lat="44.98397" lon="4.69561">
        <ele>575</ele>
        <time>2002-02-17T13:03:54Z</time>
      </trkpt>
      <trkpt lat="44.98403" lon="4.69562">
        <ele>574</ele>
        <time>2002-02-17T13:04:34Z</time>
      </trkpt>
      <trkpt lat="44.98376" lon="4.69565">
        <ele>579</ele>
        <time>2002-02-17T13:05:14Z</time>
      </trkpt>
      <trkpt lat="44.98373" lon="4.69565">
        <ele>579</ele>
        <time>2002-02-17T13:05:34Z</time>
      </trkpt>
      <trkpt lat="44.98372" lon="4.69565">
        <ele>580</ele>
        <time>2002-02-17T13:05:54Z</time>
      </trkpt>
      <trkpt lat="44.9835" lon="4.69582">
        <ele>584</ele>
        <time>2002-02-17T13:06:14Z</time>
      </trkpt>
      <trkpt lat="44.98331" lon="4.69603">
        <ele>588</ele>
        <time>2002-02-17T13:06:34Z</time>
      </trkpt>
      <trkpt lat="44.98316" lon="4.69632">
        <ele>591</ele>
        <time>2002-02-17T13:06:54Z</time>
      </trkpt>
      <trkpt lat="44.98314" lon="4.69657">
        <ele>592</ele>
        <time>2002-02-17T13:07:14Z</time>
      </trkpt>
      <trkpt lat="44.98313" lon="4.69674">
        <ele>594</ele>
        <time>2002-02-17T13:07:34Z</time>
      </trkpt>
      <trkpt lat="44.98312" lon="4.69674">
        <ele>595</ele>
        <time>2002-02-17T13:07:54Z</time>
      </trkpt>
      <trkpt lat="44.98311" lon="4.69681">
        <ele>596</ele>
        <time>2002-02-17T13:08:14Z</time>
      </trkpt>
      <trkpt lat="44.98311" lon="4.69717">
        <ele>601</ele>
        <time>2002-02-17T13:08:34Z</time>
      </trkpt>
      <trkpt lat="44.9832" lon="4.69751">
        <ele>606</ele>
        <time>2002-02-17T13:08:54Z</time>
      </trkpt>
      <trkpt lat="44.98331" lon="4.69779">
        <ele>609</ele>
        <time>2002-02-17T13:09:14Z</time>
      </trkpt>
      <trkpt lat="44.98337" lon="4.69805">
        <ele>610</ele>
        <time>2002-02-17T13:09:34Z</time>
      </trkpt>
      <trkpt lat="44.98343" lon="4.69831">
        <ele>612</ele>
        <time>2002-02-17T13:09:54Z</time>
      </trkpt>
      <trkpt lat="44.98346" lon="4.69855">
        <ele>613</ele>
        <time>2002-02-17T13:10:14Z</time>
      </trkpt>
      <trkpt lat="44.98352" lon="4.69878">
        <ele>613</ele>
        <time>2002-02-17T13:10:34Z</time>
      </trkpt>
      <trkpt lat="44.98352" lon="4.69897">
        <ele>614</ele>
        <time>2002-02-17T13:10:54Z</time>
      </trkpt>
      <trkpt lat="44.98348" lon="4.69917">
        <ele>617</ele>
        <time>2002-02-17T13:11:14Z</time>
      </trkpt>
      <trkpt lat="44.98348" lon="4.69933">
        <ele>619</ele>
        <time>2002-02-17T13:11:34Z</time>
      </trkpt>
      <trkpt lat="44.98348" lon="4.69951">
        <ele>621</ele>
        <time>2002-02-17T13:11:54Z</time>
      </trkpt>
      <trkpt lat="44.98348" lon="4.69968">
        <ele>623</ele>
        <time>2002-02-17T13:12:14Z</time>
      </trkpt>
      <trkpt lat="44.9835" lon="4.69985">
        <ele>624</ele>
        <time>2002-02-17T13:12:34Z</time>
      </trkpt>
      <trkpt lat="44.98352" lon="4.70001">
        <ele>626</ele>
        <time>2002-02-17T13:12:54Z</time>
      </trkpt>
      <trkpt lat="44.98346" lon="4.70022">
        <ele>630</ele>
        <time>2002-02-17T13:13:14Z</time>
      </trkpt>
      <trkpt lat="44.98344" lon="4.70045">
        <ele>633</ele>
        <time>2002-02-17T13:13:34Z</time>
      </trkpt>
      <trkpt lat="44.98335" lon="4.7006">
        <ele>636</ele>
        <time>2002-02-17T13:13:54Z</time>
      </trkpt>
      <trkpt lat="44.98322" lon="4.70071">
        <ele>639</ele>
        <time>2002-02-17T13:14:14Z</time>
      </trkpt>
      <trkpt lat="44.98312" lon="4.70091">
        <ele>642</ele>
        <time>2002-02-17T13:14:34Z</time>
      </trkpt>
      <trkpt lat="44.98305" lon="4.70116">
        <ele>645</ele>
        <time>2002-02-17T13:14:54Z</time>
      </trkpt>
      <trkpt lat="44.98301" lon="4.70143">
        <ele>646</ele>
        <time>2002-02-17T13:15:14Z</time>
      </trkpt>
      <trkpt lat="44.98293" lon="4.70165">
        <ele>647</ele>
        <time>2002-02-17T13:15:34Z</time>
      </trkpt>
      <trkpt lat="44.98281" lon="4.70186">
        <ele>647</ele>
        <time>2002-02-17T13:15:54Z</time>
      </trkpt>
      <trkpt lat="44.98277" lon="4.70181">
        <ele>648</ele>
        <time>2002-02-17T13:16:14Z</time>
      </trkpt>
      <trkpt lat="44.98277" lon="4.70167">
        <ele>648</ele>
        <time>2002-02-17T13:16:34Z</time>
      </trkpt>
      <trkpt lat="44.98279" lon="4.70155">
        <ele>648</ele>
        <time>2002-02-17T13:16:54Z</time>
      </trkpt>
      <trkpt lat="44.98277" lon="4.70142">
        <ele>648</ele>
        <time>2002-02-17T13:17:14Z</time>
      </trkpt>
      <trkpt lat="44.98277" lon="4.7012">
        <ele>648</ele>
        <time>2002-02-17T13:17:34Z</time>
      </trkpt>
      <trkpt lat="44.98277" lon="4.70089">
        <ele>648</ele>
        <time>2002-02-17T13:17:54Z</time>
      </trkpt>
      <trkpt lat="44.98277" lon="4.70056">
        <ele>647</ele>
        <time>2002-02-17T13:18:14Z</time>
      </trkpt>
      <trkpt lat="44.98275" lon="4.70024">
        <ele>647</ele>
        <time>2002-02-17T13:18:34Z</time>
      </trkpt>
      <trkpt lat="44.98269" lon="4.69993">
        <ele>649</ele>
        <time>2002-02-17T13:18:54Z</time>
      </trkpt>
      <trkpt lat="44.98256" lon="4.69966">
        <ele>652</ele>
        <time>2002-02-17T13:19:14Z</time>
      </trkpt>
      <trkpt lat="44.98243" lon="4.69953">
        <ele>655</ele>
        <time>2002-02-17T13:19:54Z</time>
      </trkpt>
      <trkpt lat="44.98237" lon="4.69953">
        <ele>662.1</ele>
      </trkpt>
      <trkpt lat="44.98241" lon="4.69979">
        <ele>664.8</ele>
      </trkpt>
      <trkpt lat="44.98245" lon="4.69997">
        <ele>666.7</ele>
      </trkpt>
      <trkpt lat="44.98241" lon="4.70012">
        <ele>667.7</ele>
      </trkpt>
      <trkpt lat="44.98215" lon="4.69985">
        <ele>663</ele>
        <time>2002-02-17T14:04:26Z</time>
      </trkpt>
      <trkpt lat="44.98198" lon="4.69978">
        <ele>667</ele>
        <time>2002-02-17T14:04:46Z</time>
      </trkpt>
      <trkpt lat="44.98187" lon="4.69979">
        <ele>669</ele>
        <time>2002-02-17T14:05:06Z</time>
      </trkpt>
      <trkpt lat="44.98168" lon="4.69972">
        <ele>674</ele>
        <time>2002-02-17T14:05:26Z</time>
      </trkpt>
      <trkpt lat="44.98149" lon="4.69968">
        <ele>677</ele>
        <time>2002-02-17T14:05:46Z</time>
      </trkpt>
      <trkpt lat="44.98131" lon="4.69961">
        <ele>679</ele>
        <time>2002-02-17T14:06:06Z</time>
      </trkpt>
      <trkpt lat="44.98112" lon="4.69957">
        <ele>681</ele>
        <time>2002-02-17T14:06:26Z</time>
      </trkpt>
      <trkpt lat="44.98095" lon="4.69946">
        <ele>681</ele>
        <time>2002-02-17T14:06:46Z</time>
      </trkpt>
      <trkpt lat="44.98082" lon="4.69938">
        <ele>681</ele>
        <time>2002-02-17T14:07:06Z</time>
      </trkpt>
      <trkpt lat="44.98065" lon="4.69931">
        <ele>682</ele>
        <time>2002-02-17T14:07:26Z</time>
      </trkpt>
      <trkpt lat="44.9806" lon="4.69934">
        <ele>682</ele>
        <time>2002-02-17T14:07:46Z</time>
      </trkpt>
      <trkpt lat="44.98046" lon="4.69926">
        <ele>684</ele>
        <time>2002-02-17T14:08:06Z</time>
      </trkpt>
      <trkpt lat="44.98033" lon="4.6991">
        <ele>686</ele>
        <time>2002-02-17T14:08:26Z</time>
      </trkpt>
      <trkpt lat="44.98019" lon="4.69895">
        <ele>689</ele>
        <time>2002-02-17T14:08:46Z</time>
      </trkpt>
      <trkpt lat="44.98004" lon="4.69878">
        <ele>692</ele>
        <time>2002-02-17T14:09:06Z</time>
      </trkpt>
      <trkpt lat="44.97989" lon="4.69861">
        <ele>695</ele>
        <time>2002-02-17T14:09:26Z</time>
      </trkpt>
      <trkpt lat="44.97977" lon="4.69844">
        <ele>697</ele>
        <time>2002-02-17T14:09:46Z</time>
      </trkpt>
      <trkpt lat="44.97962" lon="4.69827">
        <ele>700</ele>
        <time>2002-02-17T14:10:06Z</time>
      </trkpt>
      <trkpt lat="44.97947" lon="4.6981">
        <ele>702</ele>
        <time>2002-02-17T14:10:26Z</time>
      </trkpt>
      <trkpt lat="44.97936" lon="4.69786">
        <ele>703</ele>
        <time>2002-02-17T14:10:46Z</time>
      </trkpt>
      <trkpt lat="44.97929" lon="4.69762">
        <ele>704</ele>
        <time>2002-02-17T14:11:06Z</time>
      </trkpt>
      <trkpt lat="44.97925" lon="4.69736">
        <ele>705</ele>
        <time>2002-02-17T14:11:26Z</time>
      </trkpt>
      <trkpt lat="44.97921" lon="4.69713">
        <ele>706</ele>
        <time>2002-02-17T14:11:46Z</time>
      </trkpt>
      <trkpt lat="44.97921" lon="4.69694">
        <ele>706</ele>
        <time>2002-02-17T14:12:06Z</time>
      </trkpt>
      <trkpt lat="44.9791" lon="4.69672">
        <ele>708</ele>
        <time>2002-02-17T14:12:26Z</time>
      </trkpt>
      <trkpt lat="44.97891" lon="4.69659">
        <ele>711</ele>
        <time>2002-02-17T14:12:46Z</time>
      </trkpt>
      <trkpt lat="44.97872" lon="4.6965">
        <ele>715</ele>
        <time>2002-02-17T14:13:06Z</time>
      </trkpt>
      <trkpt lat="44.97852" lon="4.69645">
        <ele>718</ele>
        <time>2002-02-17T14:13:26Z</time>
      </trkpt>
      <trkpt lat="44.9783" lon="4.69635">
        <ele>720</ele>
        <time>2002-02-17T14:13:46Z</time>
      </trkpt>
      <trkpt lat="44.97809" lon="4.69627">
        <ele>722</ele>
        <time>2002-02-17T14:14:06Z</time>
      </trkpt>
      <trkpt lat="44.9779" lon="4.69616">
        <ele>722</ele>
        <time>2002-02-17T14:14:26Z</time>
      </trkpt>
      <trkpt lat="44.97769" lon="4.69606">
        <ele>723</ele>
        <time>2002-02-17T14:14:46Z</time>
      </trkpt>
      <trkpt lat="44.97749" lon="4.69597">
        <ele>724</ele>
        <time>2002-02-17T14:15:06Z</time>
      </trkpt>
      <trkpt lat="44.97729" lon="4.69587">
        <ele>725</ele>
        <time>2002-02-17T14:15:26Z</time>
      </trkpt>
      <trkpt lat="44.97711" lon="4.69576">
        <ele>726</ele>
        <time>2002-02-17T14:15:46Z</time>
      </trkpt>
      <trkpt lat="44.97691" lon="4.6956">
        <ele>725</ele>
        <time>2002-02-17T14:16:06Z</time>
      </trkpt>
      <trkpt lat="44.97672" lon="4.69541">
        <ele>725</ele>
        <time>2002-02-17T14:16:26Z</time>
      </trkpt>
      <trkpt lat="44.9765" lon="4.69526">
        <ele>724</ele>
        <time>2002-02-17T14:16:46Z</time>
      </trkpt>
      <trkpt lat="44.97629" lon="4.69515">
        <ele>724</ele>
        <time>2002-02-17T14:17:06Z</time>
      </trkpt>
      <trkpt lat="44.97614" lon="4.69502">
        <ele>722</ele>
        <time>2002-02-17T14:17:26Z</time>
      </trkpt>
      <trkpt lat="44.97601" lon="4.69492">
        <ele>721</ele>
        <time>2002-02-17T14:17:46Z</time>
      </trkpt>
      <trkpt lat="44.97582" lon="4.69477">
        <ele>718</ele>
        <time>2002-02-17T14:18:06Z</time>
      </trkpt>
      <trkpt lat="44.9756" lon="4.69461">
        <ele>716</ele>
        <time>2002-02-17T14:18:26Z</time>
      </trkpt>
      <trkpt lat="44.97539" lon="4.69452">
        <ele>715</ele>
        <time>2002-02-17T14:18:46Z</time>
      </trkpt>
      <trkpt lat="44.97515" lon="4.69441">
        <ele>713</ele>
        <time>2002-02-17T14:19:06Z</time>
      </trkpt>
      <trkpt lat="44.97491" lon="4.6943">
        <ele>713</ele>
        <time>2002-02-17T14:19:26Z</time>
      </trkpt>
      <trkpt lat="44.9747" lon="4.69417">
        <ele>712</ele>
        <time>2002-02-17T14:19:46Z</time>
      </trkpt>
      <trkpt lat="44.97449" lon="4.69403">
        <ele>711</ele>
        <time>2002-02-17T14:20:06Z</time>
      </trkpt>
      <trkpt lat="44.97429" lon="4.69391">
        <ele>711</ele>
        <time>2002-02-17T14:20:26Z</time>
      </trkpt>
      <trkpt lat="44.9741" lon="4.69378">
        <ele>712</ele>
        <time>2002-02-17T14:20:46Z</time>
      </trkpt>
      <trkpt lat="44.97393" lon="4.69361">
        <ele>711</ele>
        <time>2002-02-17T14:21:06Z</time>
      </trkpt>
      <trkpt lat="44.97378" lon="4.69335">
        <ele>710</ele>
        <time>2002-02-17T14:21:26Z</time>
      </trkpt>
      <trkpt lat="44.97372" lon="4.69305">
        <ele>710</ele>
        <time>2002-02-17T14:21:46Z</time>
      </trkpt>
      <trkpt lat="44.97363" lon="4.69277">
        <ele>709</ele>
        <time>2002-02-17T14:22:06Z</time>
      </trkpt>
      <trkpt lat="44.97352" lon="4.6925">
        <ele>708</ele>
        <time>2002-02-17T14:22:26Z</time>
      </trkpt>
      <trkpt lat="44.97331" lon="4.69234">
        <ele>708</ele>
        <time>2002-02-17T14:22:46Z</time>
      </trkpt>
      <trkpt lat="44.97307" lon="4.69231">
        <ele>708</ele>
        <time>2002-02-17T14:23:06Z</time>
      </trkpt>
      <trkpt lat="44.97284" lon="4.69232">
        <ele>708</ele>
        <time>2002-02-17T14:23:26Z</time>
      </trkpt>
      <trkpt lat="44.97262" lon="4.69237">
        <ele>708</ele>
        <time>2002-02-17T14:23:46Z</time>
      </trkpt>
      <trkpt lat="44.97239" lon="4.69245">
        <ele>707</ele>
        <time>2002-02-17T14:24:06Z</time>
      </trkpt>
      <trkpt lat="44.97217" lon="4.69253">
        <ele>706</ele>
        <time>2002-02-17T14:24:26Z</time>
      </trkpt>
      <trkpt lat="44.97193" lon="4.69251">
        <ele>706</ele>
        <time>2002-02-17T14:24:46Z</time>
      </trkpt>
      <trkpt lat="44.9717" lon="4.69243">
        <ele>706</ele>
        <time>2002-02-17T14:25:06Z</time>
      </trkpt>
      <trkpt lat="44.97148" lon="4.69232">
        <ele>708</ele>
        <time>2002-02-17T14:25:26Z</time>
      </trkpt>
      <trkpt lat="44.97126" lon="4.69218">
        <ele>709</ele>
        <time>2002-02-17T14:25:46Z</time>
      </trkpt>
      <trkpt lat="44.97108" lon="4.69202">
        <ele>708</ele>
        <time>2002-02-17T14:26:06Z</time>
      </trkpt>
      <trkpt lat="44.97084" lon="4.69187">
        <ele>708</ele>
        <time>2002-02-17T14:26:26Z</time>
      </trkpt>
      <trkpt lat="44.9706" lon="4.6918">
        <ele>706</ele>
        <time>2002-02-17T14:26:46Z</time>
      </trkpt>
      <trkpt lat="44.97034" lon="4.69178">
        <ele>705</ele>
        <time>2002-02-17T14:27:06Z</time>
        <extensions>
          <visugpx:TrkExtension xmlns:visugpx="https://www.visugpx.com/editgpx/">
            <visugpx:node>1</visugpx:node>
            </visugpx:TrkExtension>
        </extensions>
      </trkpt>
      <trkpt lat="44.97034" lon="4.69177">
        <ele>700.3</ele>
      </trkpt>
      <trkpt lat="44.97033" lon="4.69184">
        <ele>700.5</ele>
      </trkpt>
      <trkpt lat="44.9703" lon="4.69195">
        <ele>700.8</ele>
      </trkpt>
      <trkpt lat="44.97021" lon="4.69217">
        <ele>701.5</ele>
      </trkpt>
      <trkpt lat="44.97017" lon="4.69224">
        <ele>701.8</ele>
      </trkpt>
      <trkpt lat="44.97012" lon="4.69235">
        <ele>702.2</ele>
      </trkpt>
      <trkpt lat="44.97007" lon="4.69249">
        <ele>702.8</ele>
      </trkpt>
      <trkpt lat="44.97005" lon="4.69258">
        <ele>702.8</ele>
      </trkpt>
      <trkpt lat="44.97002" lon="4.69264">
        <ele>702.8</ele>
      </trkpt>
      <trkpt lat="44.96999" lon="4.69268">
        <ele>702.9</ele>
      </trkpt>
      <trkpt lat="44.96996" lon="4.69271">
        <ele>703.1</ele>
      </trkpt>
      <trkpt lat="44.96992" lon="4.69273">
        <ele>703.4</ele>
      </trkpt>
      <trkpt lat="44.96986" lon="4.69275">
        <ele>703.9</ele>
      </trkpt>
      <trkpt lat="44.96975" lon="4.69277">
        <ele>704.9</ele>
      </trkpt>
      <trkpt lat="44.96963" lon="4.69279">
        <ele>706</ele>
      </trkpt>
      <trkpt lat="44.96951" lon="4.69281">
        <ele>707</ele>
      </trkpt>
      <trkpt lat="44.96941" lon="4.69282">
        <ele>708</ele>
      </trkpt>
      <trkpt lat="44.96933" lon="4.69284">
        <ele>708.7</ele>
      </trkpt>
      <trkpt lat="44.96927" lon="4.69286">
        <ele>709.4</ele>
      </trkpt>
      <trkpt lat="44.96921" lon="4.6929">
        <ele>710.1</ele>
      </trkpt>
      <trkpt lat="44.96915" lon="4.69293">
        <ele>710.7</ele>
      </trkpt>
      <trkpt lat="44.96912" lon="4.69294">
        <ele>711.3</ele>
      </trkpt>
      <trkpt lat="44.96909" lon="4.69296">
        <ele>711.7</ele>
      </trkpt>
      <trkpt lat="44.96905" lon="4.69297">
        <ele>712.3</ele>
      </trkpt>
      <trkpt lat="44.96901" lon="4.69293">
        <ele>712.6</ele>
      </trkpt>
      <trkpt lat="44.96895" lon="4.6929">
        <ele>713.3</ele>
      </trkpt>
      <trkpt lat="44.96879" lon="4.69284">
        <ele>714.9</ele>
      </trkpt>
      <trkpt lat="44.96858" lon="4.69276">
        <ele>716.9</ele>
      </trkpt>
      <trkpt lat="44.96839" lon="4.69269">
        <ele>718.4</ele>
      </trkpt>
      <trkpt lat="44.96832" lon="4.69269">
        <ele>719.1</ele>
      </trkpt>
      <trkpt lat="44.96826" lon="4.69268">
        <ele>719.7</ele>
      </trkpt>
      <trkpt lat="44.96821" lon="4.69269">
        <ele>720.2</ele>
      </trkpt>
      <trkpt lat="44.96814" lon="4.69271">
        <ele>721.1</ele>
      </trkpt>
      <trkpt lat="44.96805" lon="4.69271">
        <ele>722</ele>
      </trkpt>
      <trkpt lat="44.96797" lon="4.69271">
        <ele>722.7</ele>
      </trkpt>
      <trkpt lat="44.96792" lon="4.69271">
        <ele>723.2</ele>
      </trkpt>
      <trkpt lat="44.96788" lon="4.6927">
        <ele>723.6</ele>
      </trkpt>
      <trkpt lat="44.96781" lon="4.69269">
        <ele>724.1</ele>
      </trkpt>
      <trkpt lat="44.96772" lon="4.69267">
        <ele>724.7</ele>
      </trkpt>
      <trkpt lat="44.96765" lon="4.69266">
        <ele>725.3</ele>
      </trkpt>
      <trkpt lat="44.96756" lon="4.69266">
        <ele>726.2</ele>
      </trkpt>
      <trkpt lat="44.96744" lon="4.69267">
        <ele>726.5</ele>
      </trkpt>
      <trkpt lat="44.96739" lon="4.69267">
        <ele>726.3</ele>
      </trkpt>
      <trkpt lat="44.96733" lon="4.69266">
        <ele>725.9</ele>
      </trkpt>
      <trkpt lat="44.96725" lon="4.69274">
        <ele>726.2</ele>
      </trkpt>
      <trkpt lat="44.9672" lon="4.6928">
        <ele>726.3</ele>
      </trkpt>
      <trkpt lat="44.96714" lon="4.69286">
        <ele>726.4</ele>
        <extensions>
          <visugpx:TrkExtension xmlns:visugpx="https://www.visugpx.com/editgpx/">
            <visugpx:node>2</visugpx:node>
            </visugpx:TrkExtension>
        </extensions>
      </trkpt>
      <trkpt lat="44.96711" lon="4.69288">
        <ele>726.4</ele>
      </trkpt>
      <trkpt lat="44.967" lon="4.69298">
        <ele>726.3</ele>
      </trkpt>
      <trkpt lat="44.96688" lon="4.69306">
        <ele>725.8</ele>
      </trkpt>
      <trkpt lat="44.96676" lon="4.69315">
        <ele>725.2</ele>
      </trkpt>
      <trkpt lat="44.96665" lon="4.69323">
        <ele>724.6</ele>
      </trkpt>
      <trkpt lat="44.96654" lon="4.69331">
        <ele>724.5</ele>
      </trkpt>
      <trkpt lat="44.96639" lon="4.6934">
        <ele>724.6</ele>
      </trkpt>
      <trkpt lat="44.96622" lon="4.69346">
        <ele>724.4</ele>
      </trkpt>
      <trkpt lat="44.96609" lon="4.69348">
        <ele>724</ele>
      </trkpt>
      <trkpt lat="44.96595" lon="4.6935">
        <ele>723.5</ele>
      </trkpt>
      <trkpt lat="44.96583" lon="4.69351">
        <ele>723.1</ele>
      </trkpt>
      <trkpt lat="44.96578" lon="4.69352">
        <ele>723.4</ele>
      </trkpt>
      <trkpt lat="44.96571" lon="4.69355">
        <ele>724</ele>
      </trkpt>
      <trkpt lat="44.96566" lon="4.6936">
        <ele>724.4</ele>
      </trkpt>
      <trkpt lat="44.96563" lon="4.69365">
        <ele>724.7</ele>
      </trkpt>
      <trkpt lat="44.96561" lon="4.69369">
        <ele>724.9</ele>
      </trkpt>
      <trkpt lat="44.96557" lon="4.69377">
        <ele>725.2</ele>
      </trkpt>
      <trkpt lat="44.96556" lon="4.69384">
        <ele>725.3</ele>
      </trkpt>
      <trkpt lat="44.96553" lon="4.69393">
        <ele>725.5</ele>
      </trkpt>
      <trkpt lat="44.9655" lon="4.69403">
        <ele>725.6</ele>
      </trkpt>
      <trkpt lat="44.96549" lon="4.69411">
        <ele>725.7</ele>
      </trkpt>
      <trkpt lat="44.96545" lon="4.6941">
        <ele>725.6</ele>
      </trkpt>
      <trkpt lat="44.96539" lon="4.69404">
        <ele>725.5</ele>
      </trkpt>
      <trkpt lat="44.96537" lon="4.69402">
        <ele>725.4</ele>
      </trkpt>
      <trkpt lat="44.96533" lon="4.69397">
        <ele>725.4</ele>
      </trkpt>
      <trkpt lat="44.96527" lon="4.69389">
        <ele>725.6</ele>
      </trkpt>
      <trkpt lat="44.96521" lon="4.69382">
        <ele>725.8</ele>
      </trkpt>
      <trkpt lat="44.96514" lon="4.69377">
        <ele>726.1</ele>
      </trkpt>
      <trkpt lat="44.96508" lon="4.69374">
        <ele>726.4</ele>
      </trkpt>
      <trkpt lat="44.965" lon="4.69372">
        <ele>726.7</ele>
      </trkpt>
      <trkpt lat="44.96492" lon="4.69371">
        <ele>728.1</ele>
      </trkpt>
      <trkpt lat="44.96485" lon="4.69372">
        <ele>729.1</ele>
      </trkpt>
      <trkpt lat="44.96479" lon="4.69375">
        <ele>729.6</ele>
      </trkpt>
      <trkpt lat="44.96474" lon="4.6938">
        <ele>729.9</ele>
      </trkpt>
      <trkpt lat="44.9647" lon="4.69386">
        <ele>729.8</ele>
      </trkpt>
      <trkpt lat="44.96464" lon="4.69394">
        <ele>729.7</ele>
      </trkpt>
      <trkpt lat="44.96455" lon="4.69402">
        <ele>729.7</ele>
      </trkpt>
      <trkpt lat="44.96447" lon="4.69409">
        <ele>729.5</ele>
      </trkpt>
      <trkpt lat="44.96437" lon="4.69416">
        <ele>729.4</ele>
      </trkpt>
      <trkpt lat="44.96427" lon="4.69422">
        <ele>728.9</ele>
      </trkpt>
      <trkpt lat="44.96411" lon="4.69428">
        <ele>727.9</ele>
      </trkpt>
      <trkpt lat="44.96398" lon="4.69431">
        <ele>727</ele>
      </trkpt>
      <trkpt lat="44.96384" lon="4.69435">
        <ele>726.1</ele>
      </trkpt>
      <trkpt lat="44.96365" lon="4.6944">
        <ele>724.4</ele>
      </trkpt>
      <trkpt lat="44.96354" lon="4.69441">
        <ele>723.9</ele>
      </trkpt>
      <trkpt lat="44.96343" lon="4.69441">
        <ele>723.8</ele>
      </trkpt>
      <trkpt lat="44.96336" lon="4.69442">
        <ele>723.3</ele>
      </trkpt>
      <trkpt lat="44.96328" lon="4.69446">
        <ele>721.6</ele>
      </trkpt>
      <trkpt lat="44.9632" lon="4.69446">
        <ele>721</ele>
      </trkpt>
      <trkpt lat="44.96316" lon="4.69446">
        <ele>720.8</ele>
      </trkpt>
      <trkpt lat="44.96311" lon="4.69445">
        <ele>721.2</ele>
      </trkpt>
      <trkpt lat="44.96306" lon="4.69441">
        <ele>722.6</ele>
      </trkpt>
      <trkpt lat="44.96302" lon="4.69437">
        <ele>723.8</ele>
      </trkpt>
      <trkpt lat="44.96297" lon="4.69434">
        <ele>724.5</ele>
      </trkpt>
      <trkpt lat="44.96287" lon="4.69429">
        <ele>725.9</ele>
      </trkpt>
      <trkpt lat="44.96281" lon="4.69424">
        <ele>727</ele>
      </trkpt>
      <trkpt lat="44.96273" lon="4.69421">
        <ele>727.4</ele>
      </trkpt>
      <trkpt lat="44.96263" lon="4.69419">
        <ele>727.4</ele>
      </trkpt>
      <trkpt lat="44.96251" lon="4.69417">
        <ele>727.1</ele>
      </trkpt>
      <trkpt lat="44.96239" lon="4.69415">
        <ele>726.5</ele>
      </trkpt>
      <trkpt lat="44.96226" lon="4.69414">
        <ele>725.7</ele>
      </trkpt>
      <trkpt lat="44.96214" lon="4.69414">
        <ele>724.7</ele>
      </trkpt>
      <trkpt lat="44.96203" lon="4.69413">
        <ele>724</ele>
      </trkpt>
      <trkpt lat="44.96192" lon="4.6941">
        <ele>724</ele>
      </trkpt>
      <trkpt lat="44.96181" lon="4.69404">
        <ele>724.3</ele>
      </trkpt>
      <trkpt lat="44.96173" lon="4.69399">
        <ele>724.8</ele>
      </trkpt>
      <trkpt lat="44.96165" lon="4.69395">
        <ele>725.2</ele>
      </trkpt>
      <trkpt lat="44.96157" lon="4.69393">
        <ele>725.5</ele>
      </trkpt>
      <trkpt lat="44.96147" lon="4.69389">
        <ele>726.1</ele>
      </trkpt>
      <trkpt lat="44.96138" lon="4.69386">
        <ele>726.7</ele>
      </trkpt>
      <trkpt lat="44.96129" lon="4.69384">
        <ele>727</ele>
      </trkpt>
      <trkpt lat="44.9612" lon="4.69384">
        <ele>726.6</ele>
      </trkpt>
      <trkpt lat="44.96115" lon="4.69386">
        <ele>726</ele>
      </trkpt>
      <trkpt lat="44.96112" lon="4.69387">
        <ele>725.6</ele>
      </trkpt>
      <trkpt lat="44.96102" lon="4.69391">
        <ele>724.2</ele>
      </trkpt>
      <trkpt lat="44.96095" lon="4.69395">
        <ele>723</ele>
      </trkpt>
      <trkpt lat="44.96088" lon="4.69399">
        <ele>721.5</ele>
      </trkpt>
      <trkpt lat="44.9608" lon="4.69403">
        <ele>720.8</ele>
      </trkpt>
      <trkpt lat="44.96073" lon="4.69407">
        <ele>720.9</ele>
      </trkpt>
      <trkpt lat="44.96063" lon="4.69413">
        <ele>720.7</ele>
      </trkpt>
      <trkpt lat="44.96057" lon="4.69419">
        <ele>720.1</ele>
      </trkpt>
      <trkpt lat="44.9605" lon="4.69427">
        <ele>719.1</ele>
      </trkpt>
      <trkpt lat="44.96044" lon="4.69433">
        <ele>718.2</ele>
      </trkpt>
      <trkpt lat="44.96038" lon="4.6944">
        <ele>717.4</ele>
      </trkpt>
      <trkpt lat="44.96036" lon="4.69441">
        <ele>717.4</ele>
        <extensions>
          <visugpx:TrkExtension xmlns:visugpx="https://www.visugpx.com/editgpx/">
            <visugpx:node>3</visugpx:node>
            </visugpx:TrkExtension>
        </extensions>
      </trkpt>
      <trkpt lat="44.96032" lon="4.69444">
        <ele>717.3</ele>
      </trkpt>
      <trkpt lat="44.96024" lon="4.69448">
        <ele>717.4</ele>
      </trkpt>
      <trkpt lat="44.96018" lon="4.69451">
        <ele>717.7</ele>
      </trkpt>
      <trkpt lat="44.9601" lon="4.69454">
        <ele>718.3</ele>
      </trkpt>
      <trkpt lat="44.95999" lon="4.69457">
        <ele>719.6</ele>
      </trkpt>
      <trkpt lat="44.95982" lon="4.69464">
        <ele>719.7</ele>
      </trkpt>
      <trkpt lat="44.95967" lon="4.6947">
        <ele>719.6</ele>
      </trkpt>
      <trkpt lat="44.95952" lon="4.69473">
        <ele>720.5</ele>
      </trkpt>
      <trkpt lat="44.95944" lon="4.69473">
        <ele>721.5</ele>
      </trkpt>
      <trkpt lat="44.95934" lon="4.6947">
        <ele>723.6</ele>
      </trkpt>
      <trkpt lat="44.95925" lon="4.69468">
        <ele>725.5</ele>
      </trkpt>
      <trkpt lat="44.95916" lon="4.69467">
        <ele>727</ele>
      </trkpt>
      <trkpt lat="44.95908" lon="4.69466">
        <ele>727.9</ele>
      </trkpt>
      <trkpt lat="44.95902" lon="4.69466">
        <ele>728.4</ele>
      </trkpt>
      <trkpt lat="44.95894" lon="4.69467">
        <ele>728.8</ele>
      </trkpt>
      <trkpt lat="44.95884" lon="4.69468">
        <ele>729</ele>
      </trkpt>
      <trkpt lat="44.95879" lon="4.6947">
        <ele>728.8</ele>
      </trkpt>
      <trkpt lat="44.95876" lon="4.69471">
        <ele>728.6</ele>
      </trkpt>
      <trkpt lat="44.95873" lon="4.69474">
        <ele>727.8</ele>
      </trkpt>
      <trkpt lat="44.9587" lon="4.69479">
        <ele>726.5</ele>
      </trkpt>
      <trkpt lat="44.95866" lon="4.69485">
        <ele>725</ele>
      </trkpt>
      <trkpt lat="44.95856" lon="4.69495">
        <ele>722.6</ele>
      </trkpt>
      <trkpt lat="44.95845" lon="4.69503">
        <ele>721.1</ele>
      </trkpt>
      <trkpt lat="44.95834" lon="4.69511">
        <ele>720.5</ele>
      </trkpt>
      <trkpt lat="44.95817" lon="4.69522">
        <ele>720.6</ele>
      </trkpt>
      <trkpt lat="44.95798" lon="4.69535">
        <ele>721.1</ele>
      </trkpt>
      <trkpt lat="44.95782" lon="4.69545">
        <ele>721.9</ele>
      </trkpt>
      <trkpt lat="44.95767" lon="4.69554">
        <ele>722.5</ele>
      </trkpt>
      <trkpt lat="44.95754" lon="4.69564">
        <ele>723.1</ele>
      </trkpt>
      <trkpt lat="44.95741" lon="4.69575">
        <ele>723.3</ele>
      </trkpt>
      <trkpt lat="44.95728" lon="4.69587">
        <ele>723.8</ele>
      </trkpt>
      <trkpt lat="44.95721" lon="4.69596">
        <ele>723.7</ele>
      </trkpt>
      <trkpt lat="44.95713" lon="4.6961">
        <ele>723</ele>
      </trkpt>
      <trkpt lat="44.95706" lon="4.69621">
        <ele>722.7</ele>
      </trkpt>
      <trkpt lat="44.95694" lon="4.69637">
        <ele>722.9</ele>
      </trkpt>
      <trkpt lat="44.95684" lon="4.69647">
        <ele>723.6</ele>
      </trkpt>
      <trkpt lat="44.95681" lon="4.69651">
        <ele>723.9</ele>
      </trkpt>
      <trkpt lat="44.95675" lon="4.69655">
        <ele>724.6</ele>
      </trkpt>
      <trkpt lat="44.95668" lon="4.69661">
        <ele>725.6</ele>
      </trkpt>
      <trkpt lat="44.95652" lon="4.69673">
        <ele>725</ele>
      </trkpt>
      <trkpt lat="44.95635" lon="4.69683">
        <ele>724.3</ele>
      </trkpt>
      <trkpt lat="44.95615" lon="4.69693">
        <ele>724.1</ele>
      </trkpt>
      <trkpt lat="44.95598" lon="4.69699">
        <ele>724.1</ele>
      </trkpt>
      <trkpt lat="44.95577" lon="4.6971">
        <ele>723</ele>
      </trkpt>
      <trkpt lat="44.95566" lon="4.69716">
        <ele>721.4</ele>
      </trkpt>
      <trkpt lat="44.95559" lon="4.69716">
        <ele>721.2</ele>
      </trkpt>
      <trkpt lat="44.95551" lon="4.69716">
        <ele>721.1</ele>
      </trkpt>
      <trkpt lat="44.95537" lon="4.69714">
        <ele>721</ele>
      </trkpt>
      <trkpt lat="44.95521" lon="4.69712">
        <ele>721</ele>
      </trkpt>
      <trkpt lat="44.95506" lon="4.6971">
        <ele>720.9</ele>
      </trkpt>
      <trkpt lat="44.95494" lon="4.69709">
        <ele>720.8</ele>
      </trkpt>
      <trkpt lat="44.95491" lon="4.69709">
        <ele>720.7</ele>
      </trkpt>
      <trkpt lat="44.95484" lon="4.69711">
        <ele>720.3</ele>
      </trkpt>
      <trkpt lat="44.95468" lon="4.69716">
        <ele>719.2</ele>
      </trkpt>
      <trkpt lat="44.95454" lon="4.69719">
        <ele>718.4</ele>
      </trkpt>
      <trkpt lat="44.95448" lon="4.69719">
        <ele>718.3</ele>
      </trkpt>
      <trkpt lat="44.95443" lon="4.69718">
        <ele>718.5</ele>
      </trkpt>
      <trkpt lat="44.95438" lon="4.69716">
        <ele>718.7</ele>
      </trkpt>
      <trkpt lat="44.95429" lon="4.69714">
        <ele>719.1</ele>
      </trkpt>
      <trkpt lat="44.95416" lon="4.69711">
        <ele>719.5</ele>
      </trkpt>
      <trkpt lat="44.95398" lon="4.69708">
        <ele>718.4</ele>
      </trkpt>
      <trkpt lat="44.95377" lon="4.69705">
        <ele>717</ele>
      </trkpt>
      <trkpt lat="44.95362" lon="4.69704">
        <ele>715.9</ele>
      </trkpt>
      <trkpt lat="44.95357" lon="4.69704">
        <ele>715.4</ele>
      </trkpt>
      <trkpt lat="44.95353" lon="4.69698">
        <ele>716.1</ele>
      </trkpt>
      <trkpt lat="44.95348" lon="4.69691">
        <ele>716.5</ele>
      </trkpt>
      <trkpt lat="44.95342" lon="4.69685">
        <ele>717</ele>
      </trkpt>
      <trkpt lat="44.95326" lon="4.69664">
        <ele>718.7</ele>
      </trkpt>
      <trkpt lat="44.95317" lon="4.69653">
        <ele>720.4</ele>
      </trkpt>
      <trkpt lat="44.9531" lon="4.69642">
        <ele>721.7</ele>
      </trkpt>
      <trkpt lat="44.95301" lon="4.69631">
        <ele>722.8</ele>
      </trkpt>
      <trkpt lat="44.95289" lon="4.6962">
        <ele>723.1</ele>
      </trkpt>
      <trkpt lat="44.95276" lon="4.69611">
        <ele>722.5</ele>
      </trkpt>
      <trkpt lat="44.95268" lon="4.69608">
        <ele>721.7</ele>
      </trkpt>
      <trkpt lat="44.95255" lon="4.69607">
        <ele>719.5</ele>
      </trkpt>
      <trkpt lat="44.95244" lon="4.69607">
        <ele>718.6</ele>
      </trkpt>
      <trkpt lat="44.95234" lon="4.69605">
        <ele>718.8</ele>
      </trkpt>
      <trkpt lat="44.95225" lon="4.696">
        <ele>719.1</ele>
      </trkpt>
      <trkpt lat="44.95217" lon="4.69593">
        <ele>719.8</ele>
      </trkpt>
      <trkpt lat="44.95209" lon="4.69585">
        <ele>720.4</ele>
      </trkpt>
      <trkpt lat="44.95202" lon="4.69576">
        <ele>721.4</ele>
      </trkpt>
      <trkpt lat="44.95197" lon="4.6957">
        <ele>722.3</ele>
      </trkpt>
      <trkpt lat="44.95191" lon="4.69566">
        <ele>722.5</ele>
      </trkpt>
      <trkpt lat="44.95184" lon="4.69566">
        <ele>722.3</ele>
      </trkpt>
      <trkpt lat="44.95172" lon="4.69568">
        <ele>721.5</ele>
      </trkpt>
      <trkpt lat="44.95161" lon="4.69567">
        <ele>721.7</ele>
      </trkpt>
      <trkpt lat="44.95152" lon="4.69564">
        <ele>722.8</ele>
      </trkpt>
      <trkpt lat="44.95135" lon="4.69554">
        <ele>725.1</ele>
      </trkpt>
      <trkpt lat="44.95117" lon="4.6954">
        <ele>727.5</ele>
      </trkpt>
      <trkpt lat="44.95106" lon="4.69533">
        <ele>728.7</ele>
      </trkpt>
      <trkpt lat="44.95096" lon="4.69526">
        <ele>729.7</ele>
      </trkpt>
      <trkpt lat="44.95076" lon="4.69512">
        <ele>731.9</ele>
      </trkpt>
      <trkpt lat="44.95068" lon="4.69509">
        <ele>732.9</ele>
      </trkpt>
      <trkpt lat="44.95062" lon="4.69509">
        <ele>733.5</ele>
      </trkpt>
      <trkpt lat="44.95059" lon="4.6951">
        <ele>733.7</ele>
      </trkpt>
      <trkpt lat="44.95055" lon="4.69512">
        <ele>733.9</ele>
      </trkpt>
      <trkpt lat="44.9505" lon="4.69516">
        <ele>734.2</ele>
      </trkpt>
      <trkpt lat="44.95042" lon="4.69522">
        <ele>734.6</ele>
      </trkpt>
      <trkpt lat="44.95043" lon="4.69519">
        <ele>734.7</ele>
        <extensions>
          <visugpx:TrkExtension xmlns:visugpx="https://www.visugpx.com/editgpx/">
            <visugpx:node>4</visugpx:node>
            </visugpx:TrkExtension>
        </extensions>
      </trkpt>
      <trkpt lat="44.95044" lon="4.69514">
        <ele>734.9</ele>
      </trkpt>
      <trkpt lat="44.95048" lon="4.69503">
        <ele>735.2</ele>
      </trkpt>
      <trkpt lat="44.95053" lon="4.69493">
        <ele>735.6</ele>
      </trkpt>
      <trkpt lat="44.95058" lon="4.69487">
        <ele>735.8</ele>
      </trkpt>
      <trkpt lat="44.95044" lon="4.6949">
        <ele>736.7</ele>
      </trkpt>
      <trkpt lat="44.95026" lon="4.69497">
        <ele>737.7</ele>
      </trkpt>
      <trkpt lat="44.95014" lon="4.69502">
        <ele>738.5</ele>
      </trkpt>
      <trkpt lat="44.95006" lon="4.69506">
        <ele>739.1</ele>
      </trkpt>
      <trkpt lat="44.95001" lon="4.69511">
        <ele>739.4</ele>
      </trkpt>
      <trkpt lat="44.94996" lon="4.69519">
        <ele>739.6</ele>
      </trkpt>
      <trkpt lat="44.94995" lon="4.69523">
        <ele>739.6</ele>
      </trkpt>
      <trkpt lat="44.94989" lon="4.69538">
        <ele>739.6</ele>
      </trkpt>
      <trkpt lat="44.94982" lon="4.69553">
        <ele>739.8</ele>
      </trkpt>
      <trkpt lat="44.94973" lon="4.69564">
        <ele>740.3</ele>
      </trkpt>
      <trkpt lat="44.94965" lon="4.6957">
        <ele>740.9</ele>
      </trkpt>
      <trkpt lat="44.94955" lon="4.69576">
        <ele>741.8</ele>
      </trkpt>
      <trkpt lat="44.94946" lon="4.69578">
        <ele>742.8</ele>
      </trkpt>
      <trkpt lat="44.94932" lon="4.69578">
        <ele>744.5</ele>
      </trkpt>
      <trkpt lat="44.94919" lon="4.69578">
        <ele>746.1</ele>
      </trkpt>
      <trkpt lat="44.94908" lon="4.69576">
        <ele>747</ele>
      </trkpt>
      <trkpt lat="44.94893" lon="4.69572">
        <ele>748.3</ele>
      </trkpt>
      <trkpt lat="44.94875" lon="4.69566">
        <ele>749.7</ele>
      </trkpt>
      <trkpt lat="44.94864" lon="4.69563">
        <ele>750.6</ele>
      </trkpt>
      <trkpt lat="44.94854" lon="4.69559">
        <ele>751.5</ele>
      </trkpt>
      <trkpt lat="44.94844" lon="4.69555">
        <ele>752.4</ele>
      </trkpt>
      <trkpt lat="44.94832" lon="4.69553">
        <ele>753.2</ele>
      </trkpt>
      <trkpt lat="44.94824" lon="4.69552">
        <ele>753</ele>
      </trkpt>
      <trkpt lat="44.94817" lon="4.6955">
        <ele>752.8</ele>
      </trkpt>
      <trkpt lat="44.94809" lon="4.69545">
        <ele>753</ele>
      </trkpt>
      <trkpt lat="44.94798" lon="4.69538">
        <ele>753.3</ele>
      </trkpt>
      <trkpt lat="44.94786" lon="4.69525">
        <ele>754.3</ele>
      </trkpt>
      <trkpt lat="44.94781" lon="4.69518">
        <ele>755</ele>
      </trkpt>
      <trkpt lat="44.94777" lon="4.69508">
        <ele>756.1</ele>
      </trkpt>
      <trkpt lat="44.94773" lon="4.69499">
        <ele>757.1</ele>
      </trkpt>
      <trkpt lat="44.9477" lon="4.69492">
        <ele>757.9</ele>
        <extensions>
          <visugpx:TrkExtension xmlns:visugpx="https://www.visugpx.com/editgpx/">
            <visugpx:node>5</visugpx:node>
            </visugpx:TrkExtension>
        </extensions>
      </trkpt>
      <trkpt lat="44.9477" lon="4.69491">
        <ele>758</ele>
      </trkpt>
      <trkpt lat="44.94767" lon="4.69482">
        <ele>759.1</ele>
      </trkpt>
      <trkpt lat="44.94764" lon="4.69471">
        <ele>760.5</ele>
      </trkpt>
      <trkpt lat="44.94762" lon="4.69453">
        <ele>762.7</ele>
      </trkpt>
      <trkpt lat="44.9476" lon="4.69448">
        <ele>763.5</ele>
      </trkpt>
      <trkpt lat="44.94757" lon="4.69444">
        <ele>764</ele>
      </trkpt>
      <trkpt lat="44.94749" lon="4.69437">
        <ele>765.2</ele>
      </trkpt>
      <trkpt lat="44.94734" lon="4.69426">
        <ele>766.5</ele>
      </trkpt>
      <trkpt lat="44.94723" lon="4.69417">
        <ele>767.7</ele>
      </trkpt>
      <trkpt lat="44.94709" lon="4.69408">
        <ele>768.4</ele>
      </trkpt>
      <trkpt lat="44.94689" lon="4.69395">
        <ele>770</ele>
      </trkpt>
      <trkpt lat="44.94672" lon="4.69382">
        <ele>771.8</ele>
      </trkpt>
      <trkpt lat="44.94658" lon="4.69371">
        <ele>773.1</ele>
      </trkpt>
      <trkpt lat="44.9465" lon="4.69365">
        <ele>773.6</ele>
      </trkpt>
      <trkpt lat="44.94645" lon="4.69362">
        <ele>773.8</ele>
      </trkpt>
      <trkpt lat="44.94635" lon="4.69357">
        <ele>774</ele>
      </trkpt>
      <trkpt lat="44.94626" lon="4.69352">
        <ele>774.2</ele>
      </trkpt>
      <trkpt lat="44.94616" lon="4.69346">
        <ele>774.6</ele>
      </trkpt>
      <trkpt lat="44.94608" lon="4.6934">
        <ele>775.1</ele>
      </trkpt>
      <trkpt lat="44.946" lon="4.69335">
        <ele>775.5</ele>
      </trkpt>
      <trkpt lat="44.94591" lon="4.69329">
        <ele>775.4</ele>
      </trkpt>
      <trkpt lat="44.94581" lon="4.6932">
        <ele>775.1</ele>
      </trkpt>
      <trkpt lat="44.94573" lon="4.69312">
        <ele>775.2</ele>
      </trkpt>
      <trkpt lat="44.94566" lon="4.69305">
        <ele>775.3</ele>
      </trkpt>
      <trkpt lat="44.94559" lon="4.69299">
        <ele>775.4</ele>
      </trkpt>
      <trkpt lat="44.94549" lon="4.69294">
        <ele>775.5</ele>
      </trkpt>
      <trkpt lat="44.94538" lon="4.69288">
        <ele>775.6</ele>
      </trkpt>
      <trkpt lat="44.94529" lon="4.69284">
        <ele>775.7</ele>
      </trkpt>
      <trkpt lat="44.94523" lon="4.6928">
        <ele>775.8</ele>
      </trkpt>
      <trkpt lat="44.94509" lon="4.69272">
        <ele>776.2</ele>
      </trkpt>
      <trkpt lat="44.94487" lon="4.69257">
        <ele>775.3</ele>
      </trkpt>
      <trkpt lat="44.94473" lon="4.69247">
        <ele>773.9</ele>
      </trkpt>
      <trkpt lat="44.94453" lon="4.69235">
        <ele>771.5</ele>
      </trkpt>
      <trkpt lat="44.94434" lon="4.69222">
        <ele>769.4</ele>
      </trkpt>
      <trkpt lat="44.94423" lon="4.69213">
        <ele>768.5</ele>
      </trkpt>
      <trkpt lat="44.94414" lon="4.69205">
        <ele>768</ele>
      </trkpt>
      <trkpt lat="44.9441" lon="4.69203">
        <ele>768</ele>
      </trkpt>
      <trkpt lat="44.94395" lon="4.69194">
        <ele>768.3</ele>
      </trkpt>
      <trkpt lat="44.94383" lon="4.6919">
        <ele>768.9</ele>
      </trkpt>
      <trkpt lat="44.94379" lon="4.69189">
        <ele>769</ele>
      </trkpt>
      <trkpt lat="44.94369" lon="4.69188">
        <ele>769.4</ele>
      </trkpt>
      <trkpt lat="44.94359" lon="4.69187">
        <ele>769.8</ele>
      </trkpt>
      <trkpt lat="44.94349" lon="4.69188">
        <ele>770</ele>
      </trkpt>
      <trkpt lat="44.9434" lon="4.6919">
        <ele>769.9</ele>
      </trkpt>
      <trkpt lat="44.94328" lon="4.69189">
        <ele>770.6</ele>
      </trkpt>
      <trkpt lat="44.94318" lon="4.69187">
        <ele>771.7</ele>
      </trkpt>
      <trkpt lat="44.94304" lon="4.69182">
        <ele>773.7</ele>
      </trkpt>
      <trkpt lat="44.94296" lon="4.69178">
        <ele>775.2</ele>
      </trkpt>
      <trkpt lat="44.94286" lon="4.69169">
        <ele>777.5</ele>
      </trkpt>
      <trkpt lat="44.94277" lon="4.69161">
        <ele>779</ele>
      </trkpt>
      <trkpt lat="44.94268" lon="4.69157">
        <ele>780</ele>
      </trkpt>
      <trkpt lat="44.94258" lon="4.69151">
        <ele>781.2</ele>
      </trkpt>
      <trkpt lat="44.94251" lon="4.69149">
        <ele>782</ele>
      </trkpt>
      <trkpt lat="44.94245" lon="4.69149">
        <ele>782.3</ele>
      </trkpt>
      <trkpt lat="44.94241" lon="4.69151">
        <ele>782.3</ele>
      </trkpt>
      <trkpt lat="44.94234" lon="4.69155">
        <ele>782.3</ele>
      </trkpt>
      <trkpt lat="44.94227" lon="4.69161">
        <ele>782.2</ele>
      </trkpt>
      <trkpt lat="44.94218" lon="4.69168">
        <ele>781.9</ele>
      </trkpt>
      <trkpt lat="44.94207" lon="4.69173">
        <ele>781.5</ele>
      </trkpt>
      <trkpt lat="44.94196" lon="4.69179">
        <ele>780.9</ele>
      </trkpt>
      <trkpt lat="44.94184" lon="4.69181">
        <ele>781.1</ele>
      </trkpt>
      <trkpt lat="44.94167" lon="4.6918">
        <ele>782.1</ele>
      </trkpt>
      <trkpt lat="44.94157" lon="4.69177">
        <ele>781.6</ele>
      </trkpt>
      <trkpt lat="44.94148" lon="4.69174">
        <ele>781.3</ele>
      </trkpt>
      <trkpt lat="44.94139" lon="4.69171">
        <ele>781</ele>
      </trkpt>
      <trkpt lat="44.94131" lon="4.69168">
        <ele>780.7</ele>
      </trkpt>
      <trkpt lat="44.94125" lon="4.69167">
        <ele>780.3</ele>
      </trkpt>
      <trkpt lat="44.94115" lon="4.69168">
        <ele>779.3</ele>
      </trkpt>
      <trkpt lat="44.94108" lon="4.69169">
        <ele>778.5</ele>
      </trkpt>
      <trkpt lat="44.941" lon="4.6917">
        <ele>777.6</ele>
      </trkpt>
      <trkpt lat="44.94088" lon="4.69167">
        <ele>777.4</ele>
      </trkpt>
      <trkpt lat="44.94079" lon="4.69162">
        <ele>776.5</ele>
      </trkpt>
      <trkpt lat="44.94071" lon="4.69157">
        <ele>775.4</ele>
      </trkpt>
      <trkpt lat="44.94055" lon="4.69144">
        <ele>773.7</ele>
      </trkpt>
      <trkpt lat="44.94035" lon="4.69125">
        <ele>772.4</ele>
      </trkpt>
      <trkpt lat="44.94018" lon="4.69108">
        <ele>772</ele>
      </trkpt>
      <trkpt lat="44.93999" lon="4.69089">
        <ele>772</ele>
      </trkpt>
      <trkpt lat="44.9398" lon="4.69072">
        <ele>770.2</ele>
      </trkpt>
      <trkpt lat="44.93966" lon="4.69061">
        <ele>768.6</ele>
      </trkpt>
      <trkpt lat="44.93954" lon="4.69051">
        <ele>767.2</ele>
      </trkpt>
      <trkpt lat="44.93945" lon="4.69043">
        <ele>766.4</ele>
      </trkpt>
      <trkpt lat="44.93939" lon="4.69037">
        <ele>765.8</ele>
      </trkpt>
      <trkpt lat="44.93922" lon="4.69022">
        <ele>764.3</ele>
      </trkpt>
      <trkpt lat="44.93902" lon="4.69003">
        <ele>763.7</ele>
        <extensions>
          <visugpx:TrkExtension xmlns:visugpx="https://www.visugpx.com/editgpx/">
            <visugpx:node>6</visugpx:node>
            </visugpx:TrkExtension>
        </extensions>
      </trkpt>
      <trkpt lat="44.93893" lon="4.68994">
        <ele>763.1</ele>
      </trkpt>
      <trkpt lat="44.93912" lon="4.68994">
        <ele>764.4</ele>
      </trkpt>
      <trkpt lat="44.9393" lon="4.68992">
        <ele>766</ele>
      </trkpt>
      <trkpt lat="44.9395" lon="4.68986">
        <ele>767.6</ele>
      </trkpt>
      <trkpt lat="44.93969" lon="4.6898">
        <ele>768.8</ele>
      </trkpt>
      <trkpt lat="44.94005" lon="4.68926">
        <ele>764.2</ele>
      </trkpt>
      <trkpt lat="44.94034" lon="4.68868">
        <ele>758.1</ele>
      </trkpt>
      <trkpt lat="44.9406" lon="4.68789">
        <ele>749.4</ele>
      </trkpt>
      <trkpt lat="44.94072" lon="4.68742">
        <ele>742.8</ele>
      </trkpt>
      <trkpt lat="44.94081" lon="4.68698">
        <ele>736.3</ele>
      </trkpt>
      <trkpt lat="44.94081" lon="4.68696">
        <ele>735.9</ele>
      </trkpt>
      <trkpt lat="44.9409" lon="4.68661">
        <ele>731.2</ele>
      </trkpt>
      <trkpt lat="44.94093" lon="4.68653">
        <ele>730.3</ele>
      </trkpt>
      <trkpt lat="44.94098" lon="4.68639">
        <ele>729.1</ele>
      </trkpt>
      <trkpt lat="44.94102" lon="4.68618">
        <ele>726.5</ele>
      </trkpt>
      <trkpt lat="44.94104" lon="4.68609">
        <ele>725.4</ele>
      </trkpt>
      <trkpt lat="44.94105" lon="4.68603">
        <ele>724.6</ele>
      </trkpt>
      <trkpt lat="44.94108" lon="4.68588">
        <ele>722.7</ele>
      </trkpt>
      <trkpt lat="44.94111" lon="4.68573">
        <ele>722.1</ele>
      </trkpt>
      <trkpt lat="44.94113" lon="4.6856">
        <ele>722</ele>
      </trkpt>
      <trkpt lat="44.94115" lon="4.68544">
        <ele>721.6</ele>
      </trkpt>
      <trkpt lat="44.94117" lon="4.6853">
        <ele>721.3</ele>
      </trkpt>
      <trkpt lat="44.94117" lon="4.68525">
        <ele>721.1</ele>
      </trkpt>
      <trkpt lat="44.94118" lon="4.68521">
        <ele>721</ele>
      </trkpt>
      <trkpt lat="44.94119" lon="4.68512">
        <ele>720.7</ele>
      </trkpt>
      <trkpt lat="44.94121" lon="4.68501">
        <ele>720.2</ele>
      </trkpt>
      <trkpt lat="44.94123" lon="4.68491">
        <ele>719.9</ele>
      </trkpt>
      <trkpt lat="44.94126" lon="4.68482">
        <ele>719.5</ele>
      </trkpt>
      <trkpt lat="44.94128" lon="4.68469">
        <ele>719</ele>
      </trkpt>
      <trkpt lat="44.9413" lon="4.6846">
        <ele>718.6</ele>
      </trkpt>
      <trkpt lat="44.94132" lon="4.68434">
        <ele>717.7</ele>
      </trkpt>
      <trkpt lat="44.94133" lon="4.68417">
        <ele>717.1</ele>
      </trkpt>
      <trkpt lat="44.94134" lon="4.68401">
        <ele>715.1</ele>
      </trkpt>
      <trkpt lat="44.94134" lon="4.68385">
        <ele>713.1</ele>
      </trkpt>
      <trkpt lat="44.94135" lon="4.68362">
        <ele>710.3</ele>
      </trkpt>
      <trkpt lat="44.94135" lon="4.68352">
        <ele>709.1</ele>
      </trkpt>
      <trkpt lat="44.94135" lon="4.68346">
        <ele>708.3</ele>
      </trkpt>
      <trkpt lat="44.94136" lon="4.68333">
        <ele>706.9</ele>
      </trkpt>
      <trkpt lat="44.94135" lon="4.6832">
        <ele>706.4</ele>
      </trkpt>
      <trkpt lat="44.94134" lon="4.68305">
        <ele>705.9</ele>
      </trkpt>
      <trkpt lat="44.94131" lon="4.68293">
        <ele>705.4</ele>
      </trkpt>
      <trkpt lat="44.94126" lon="4.6828">
        <ele>704.9</ele>
      </trkpt>
      <trkpt lat="44.94119" lon="4.68254">
        <ele>703.6</ele>
      </trkpt>
      <trkpt lat="44.94114" lon="4.68237">
        <ele>702.8</ele>
      </trkpt>
      <trkpt lat="44.9411" lon="4.68222">
        <ele>702.1</ele>
      </trkpt>
      <trkpt lat="44.94109" lon="4.68213">
        <ele>701.6</ele>
      </trkpt>
      <trkpt lat="44.94109" lon="4.68207">
        <ele>701.3</ele>
      </trkpt>
      <trkpt lat="44.94108" lon="4.68202">
        <ele>701.1</ele>
      </trkpt>
      <trkpt lat="44.94107" lon="4.68198">
        <ele>700.9</ele>
      </trkpt>
      <trkpt lat="44.94105" lon="4.68194">
        <ele>700.6</ele>
      </trkpt>
      <trkpt lat="44.94104" lon="4.68191">
        <ele>700.4</ele>
      </trkpt>
      <trkpt lat="44.94106" lon="4.68183">
        <ele>700.1</ele>
      </trkpt>
      <trkpt lat="44.94108" lon="4.68169">
        <ele>699.6</ele>
      </trkpt>
      <trkpt lat="44.94113" lon="4.6815">
        <ele>698.6</ele>
      </trkpt>
      <trkpt lat="44.94114" lon="4.68142">
        <ele>698.2</ele>
      </trkpt>
      <trkpt lat="44.94114" lon="4.68132">
        <ele>697.6</ele>
      </trkpt>
      <trkpt lat="44.94114" lon="4.68119">
        <ele>696.7</ele>
      </trkpt>
      <trkpt lat="44.94113" lon="4.6809">
        <ele>694.6</ele>
      </trkpt>
      <trkpt lat="44.94112" lon="4.68071">
        <ele>693.7</ele>
      </trkpt>
      <trkpt lat="44.94112" lon="4.68063">
        <ele>693.3</ele>
      </trkpt>
      <trkpt lat="44.94112" lon="4.68059">
        <ele>693.1</ele>
      </trkpt>
      <trkpt lat="44.94111" lon="4.68047">
        <ele>692.5</ele>
      </trkpt>
      <trkpt lat="44.9411" lon="4.68038">
        <ele>692</ele>
      </trkpt>
      <trkpt lat="44.94109" lon="4.6803">
        <ele>691.5</ele>
      </trkpt>
      <trkpt lat="44.94108" lon="4.68025">
        <ele>691.3</ele>
      </trkpt>
      <trkpt lat="44.94109" lon="4.68019">
        <ele>691.2</ele>
      </trkpt>
      <trkpt lat="44.94111" lon="4.68012">
        <ele>691.2</ele>
      </trkpt>
      <trkpt lat="44.94115" lon="4.68008">
        <ele>691.4</ele>
      </trkpt>
      <trkpt lat="44.94123" lon="4.68002">
        <ele>692.4</ele>
      </trkpt>
      <trkpt lat="44.94137" lon="4.6799">
        <ele>693.5</ele>
      </trkpt>
      <trkpt lat="44.9415" lon="4.67974">
        <ele>694.3</ele>
      </trkpt>
      <trkpt lat="44.94165" lon="4.67953">
        <ele>695</ele>
      </trkpt>
      <trkpt lat="44.94177" lon="4.67937">
        <ele>695.7</ele>
      </trkpt>
      <trkpt lat="44.94179" lon="4.67932">
        <ele>695.7</ele>
      </trkpt>
      <trkpt lat="44.9418" lon="4.67928">
        <ele>695.5</ele>
      </trkpt>
      <trkpt lat="44.9418" lon="4.67924">
        <ele>695.2</ele>
      </trkpt>
      <trkpt lat="44.94179" lon="4.6792">
        <ele>694.9</ele>
      </trkpt>
      <trkpt lat="44.94178" lon="4.67917">
        <ele>694.6</ele>
      </trkpt>
      <trkpt lat="44.94176" lon="4.67909">
        <ele>693.7</ele>
      </trkpt>
      <trkpt lat="44.94174" lon="4.67903">
        <ele>693.2</ele>
      </trkpt>
      <trkpt lat="44.94173" lon="4.67895">
        <ele>692.6</ele>
      </trkpt>
      <trkpt lat="44.94173" lon="4.67882">
        <ele>691.7</ele>
      </trkpt>
      <trkpt lat="44.94172" lon="4.67871">
        <ele>691.1</ele>
      </trkpt>
      <trkpt lat="44.94173" lon="4.67849">
        <ele>689.8</ele>
      </trkpt>
      <trkpt lat="44.94173" lon="4.67824">
        <ele>688.6</ele>
      </trkpt>
      <trkpt lat="44.94174" lon="4.67816">
        <ele>688.3</ele>
      </trkpt>
      <trkpt lat="44.94174" lon="4.67811">
        <ele>688.1</ele>
      </trkpt>
      <trkpt lat="44.94176" lon="4.67804">
        <ele>688.2</ele>
      </trkpt>
      <trkpt lat="44.94181" lon="4.67799">
        <ele>688.6</ele>
      </trkpt>
      <trkpt lat="44.94181" lon="4.67799">
        <ele>688.6</ele>
        <extensions>
          <visugpx:TrkExtension xmlns:visugpx="https://www.visugpx.com/editgpx/">
            <visugpx:node>7</visugpx:node>
            </visugpx:TrkExtension>
        </extensions>
      </trkpt>
      <trkpt lat="44.94186" lon="4.67795">
        <ele>689.1</ele>
      </trkpt>
      <trkpt lat="44.9419" lon="4.6779">
        <ele>689.4</ele>
      </trkpt>
      <trkpt lat="44.9418" lon="4.67777">
        <ele>687.5</ele>
      </trkpt>
      <trkpt lat="44.94171" lon="4.67765">
        <ele>686</ele>
      </trkpt>
      <trkpt lat="44.94162" lon="4.67752">
        <ele>684.8</ele>
      </trkpt>
      <trkpt lat="44.94154" lon="4.67736">
        <ele>684.3</ele>
      </trkpt>
      <trkpt lat="44.94147" lon="4.67725">
        <ele>684</ele>
      </trkpt>
      <trkpt lat="44.94145" lon="4.67719">
        <ele>684</ele>
      </trkpt>
      <trkpt lat="44.9414" lon="4.67713">
        <ele>683.9</ele>
      </trkpt>
      <trkpt lat="44.94137" lon="4.67709">
        <ele>683.8</ele>
      </trkpt>
      <trkpt lat="44.94134" lon="4.67704">
        <ele>683.7</ele>
      </trkpt>
      <trkpt lat="44.94127" lon="4.67697">
        <ele>683.7</ele>
      </trkpt>
      <trkpt lat="44.94113" lon="4.67685">
        <ele>683.6</ele>
      </trkpt>
      <trkpt lat="44.94098" lon="4.67674">
        <ele>683.8</ele>
      </trkpt>
      <trkpt lat="44.94088" lon="4.67665">
        <ele>684</ele>
      </trkpt>
      <trkpt lat="44.94076" lon="4.67656">
        <ele>684.3</ele>
      </trkpt>
      <trkpt lat="44.94068" lon="4.67648">
        <ele>684.6</ele>
      </trkpt>
      <trkpt lat="44.9406" lon="4.6764">
        <ele>685</ele>
      </trkpt>
      <trkpt lat="44.94055" lon="4.67634">
        <ele>685.2</ele>
      </trkpt>
      <trkpt lat="44.94053" lon="4.67628">
        <ele>685.3</ele>
      </trkpt>
      <trkpt lat="44.94053" lon="4.67619">
        <ele>685.5</ele>
      </trkpt>
      <trkpt lat="44.94053" lon="4.67611">
        <ele>685.6</ele>
      </trkpt>
      <trkpt lat="44.94054" lon="4.67599">
        <ele>685.8</ele>
      </trkpt>
      <trkpt lat="44.94053" lon="4.67591">
        <ele>686</ele>
      </trkpt>
      <trkpt lat="44.94051" lon="4.67581">
        <ele>686.1</ele>
      </trkpt>
      <trkpt lat="44.94047" lon="4.67574">
        <ele>686</ele>
      </trkpt>
      <trkpt lat="44.94038" lon="4.67561">
        <ele>685.9</ele>
      </trkpt>
      <trkpt lat="44.94021" lon="4.67537">
        <ele>685.7</ele>
      </trkpt>
      <trkpt lat="44.93991" lon="4.675">
        <ele>685.8</ele>
      </trkpt>
      <trkpt lat="44.93967" lon="4.6747">
        <ele>687.8</ele>
      </trkpt>
      <trkpt lat="44.93955" lon="4.67457">
        <ele>688.4</ele>
      </trkpt>
      <trkpt lat="44.93942" lon="4.67449">
        <ele>688.9</ele>
      </trkpt>
      <trkpt lat="44.9393" lon="4.67443">
        <ele>689.4</ele>
      </trkpt>
      <trkpt lat="44.93914" lon="4.67437">
        <ele>689.9</ele>
      </trkpt>
      <trkpt lat="44.93907" lon="4.67436">
        <ele>690.1</ele>
      </trkpt>
      <trkpt lat="44.93897" lon="4.67434">
        <ele>690.5</ele>
      </trkpt>
      <trkpt lat="44.93885" lon="4.67431">
        <ele>691</ele>
      </trkpt>
      <trkpt lat="44.93874" lon="4.67428">
        <ele>691.4</ele>
      </trkpt>
      <trkpt lat="44.93859" lon="4.67419">
        <ele>691.8</ele>
      </trkpt>
      <trkpt lat="44.93838" lon="4.67406">
        <ele>692.6</ele>
      </trkpt>
      <trkpt lat="44.93819" lon="4.67395">
        <ele>693.5</ele>
      </trkpt>
      <trkpt lat="44.93807" lon="4.67385">
        <ele>694.6</ele>
      </trkpt>
      <trkpt lat="44.93799" lon="4.67376">
        <ele>695.7</ele>
      </trkpt>
      <trkpt lat="44.93792" lon="4.67366">
        <ele>696.9</ele>
      </trkpt>
      <trkpt lat="44.93788" lon="4.67353">
        <ele>698.1</ele>
      </trkpt>
      <trkpt lat="44.93785" lon="4.67337">
        <ele>699.5</ele>
      </trkpt>
      <trkpt lat="44.93786" lon="4.67321">
        <ele>699.9</ele>
      </trkpt>
      <trkpt lat="44.93786" lon="4.6731">
        <ele>700</ele>
      </trkpt>
      <trkpt lat="44.93787" lon="4.673">
        <ele>700.2</ele>
      </trkpt>
      <trkpt lat="44.93786" lon="4.6729">
        <ele>700.7</ele>
      </trkpt>
      <trkpt lat="44.93783" lon="4.67281">
        <ele>701.4</ele>
      </trkpt>
      <trkpt lat="44.9378" lon="4.6727">
        <ele>702.4</ele>
      </trkpt>
      <trkpt lat="44.93771" lon="4.67254">
        <ele>704.7</ele>
      </trkpt>
      <trkpt lat="44.93762" lon="4.67239">
        <ele>705.5</ele>
      </trkpt>
      <trkpt lat="44.93753" lon="4.67218">
        <ele>704.8</ele>
      </trkpt>
      <trkpt lat="44.93748" lon="4.672">
        <ele>703.3</ele>
      </trkpt>
      <trkpt lat="44.93742" lon="4.6718">
        <ele>701.8</ele>
      </trkpt>
      <trkpt lat="44.93739" lon="4.67165">
        <ele>700.8</ele>
      </trkpt>
      <trkpt lat="44.93734" lon="4.67154">
        <ele>701.4</ele>
      </trkpt>
      <trkpt lat="44.9373" lon="4.67145">
        <ele>701.8</ele>
      </trkpt>
      <trkpt lat="44.93723" lon="4.67137">
        <ele>702.3</ele>
      </trkpt>
      <trkpt lat="44.93713" lon="4.67131">
        <ele>703</ele>
      </trkpt>
      <trkpt lat="44.93704" lon="4.67126">
        <ele>703.4</ele>
      </trkpt>
      <trkpt lat="44.93693" lon="4.67122">
        <ele>704</ele>
      </trkpt>
      <trkpt lat="44.93677" lon="4.67116">
        <ele>704.4</ele>
      </trkpt>
      <trkpt lat="44.93666" lon="4.67111">
        <ele>704.3</ele>
      </trkpt>
      <trkpt lat="44.93657" lon="4.67104">
        <ele>704.1</ele>
      </trkpt>
      <trkpt lat="44.93652" lon="4.67099">
        <ele>703.9</ele>
      </trkpt>
      <trkpt lat="44.9365" lon="4.67094">
        <ele>703.3</ele>
      </trkpt>
      <trkpt lat="44.93649" lon="4.67084">
        <ele>701.8</ele>
      </trkpt>
      <trkpt lat="44.93648" lon="4.67071">
        <ele>701.7</ele>
      </trkpt>
      <trkpt lat="44.93647" lon="4.67047">
        <ele>701.7</ele>
      </trkpt>
      <trkpt lat="44.93646" lon="4.67023">
        <ele>701.7</ele>
      </trkpt>
      <trkpt lat="44.93644" lon="4.67015">
        <ele>701.7</ele>
      </trkpt>
      <trkpt lat="44.93641" lon="4.67009">
        <ele>701.7</ele>
      </trkpt>
      <trkpt lat="44.93641" lon="4.67003">
        <ele>701.7</ele>
      </trkpt>
      <trkpt lat="44.93637" lon="4.66997">
        <ele>701.9</ele>
      </trkpt>
      <trkpt lat="44.93631" lon="4.6698">
        <ele>703.1</ele>
      </trkpt>
      <trkpt lat="44.93618" lon="4.66941">
        <ele>705.6</ele>
      </trkpt>
      <trkpt lat="44.93607" lon="4.66905">
        <ele>707.8</ele>
      </trkpt>
      <trkpt lat="44.93604" lon="4.66891">
        <ele>708.8</ele>
      </trkpt>
      <trkpt lat="44.93602" lon="4.66876">
        <ele>709.7</ele>
      </trkpt>
      <trkpt lat="44.93601" lon="4.66864">
        <ele>710.5</ele>
      </trkpt>
      <trkpt lat="44.93601" lon="4.66847">
        <ele>711.7</ele>
      </trkpt>
      <trkpt lat="44.93602" lon="4.6684">
        <ele>712.2</ele>
      </trkpt>
      <trkpt lat="44.93602" lon="4.66827">
        <ele>713</ele>
      </trkpt>
      <trkpt lat="44.93604" lon="4.66802">
        <ele>714.3</ele>
      </trkpt>
      <trkpt lat="44.93605" lon="4.66784">
        <ele>715.2</ele>
      </trkpt>
      <trkpt lat="44.93607" lon="4.66772">
        <ele>715.9</ele>
      </trkpt>
      <trkpt lat="44.93609" lon="4.66759">
        <ele>716.7</ele>
      </trkpt>
      <trkpt lat="44.93611" lon="4.66747">
        <ele>717.7</ele>
      </trkpt>
      <trkpt lat="44.93612" lon="4.6673">
        <ele>719.7</ele>
      </trkpt>
      <trkpt lat="44.93611" lon="4.66717">
        <ele>721.1</ele>
      </trkpt>
      <trkpt lat="44.93611" lon="4.66715">
        <ele>721.3</ele>
        <extensions>
          <visugpx:TrkExtension xmlns:visugpx="https://www.visugpx.com/editgpx/">
            <visugpx:node>8</visugpx:node>
            </visugpx:TrkExtension>
        </extensions>
      </trkpt>
      <trkpt lat="44.93611" lon="4.66702">
        <ele>722.7</ele>
      </trkpt>
      <trkpt lat="44.93613" lon="4.66687">
        <ele>724.8</ele>
      </trkpt>
      <trkpt lat="44.93626" lon="4.66707">
        <ele>724.2</ele>
      </trkpt>
      <trkpt lat="44.93643" lon="4.66731">
        <ele>723.1</ele>
      </trkpt>
      <trkpt lat="44.93659" lon="4.6675">
        <ele>721.4</ele>
      </trkpt>
      <trkpt lat="44.93672" lon="4.66762">
        <ele>721.9</ele>
      </trkpt>
      <trkpt lat="44.93686" lon="4.66769">
        <ele>723.3</ele>
      </trkpt>
      <trkpt lat="44.93702" lon="4.66777">
        <ele>724.9</ele>
      </trkpt>
      <trkpt lat="44.9372" lon="4.66789">
        <ele>725.7</ele>
      </trkpt>
      <trkpt lat="44.93737" lon="4.66802">
        <ele>725.6</ele>
      </trkpt>
      <trkpt lat="44.93756" lon="4.66815">
        <ele>725.7</ele>
      </trkpt>
      <trkpt lat="44.93772" lon="4.66824">
        <ele>726.6</ele>
      </trkpt>
      <trkpt lat="44.93791" lon="4.66834">
        <ele>727.9</ele>
      </trkpt>
      <trkpt lat="44.93805" lon="4.66839">
        <ele>729.3</ele>
      </trkpt>
      <trkpt lat="44.93808" lon="4.6684">
        <ele>729.6</ele>
      </trkpt>
      <trkpt lat="44.9382" lon="4.66846">
        <ele>730.6</ele>
      </trkpt>
      <trkpt lat="44.93832" lon="4.66854">
        <ele>730.7</ele>
      </trkpt>
      <trkpt lat="44.93849" lon="4.66861">
        <ele>729.9</ele>
      </trkpt>
      <trkpt lat="44.93867" lon="4.6687">
        <ele>728.6</ele>
      </trkpt>
      <trkpt lat="44.93883" lon="4.66876">
        <ele>727.5</ele>
      </trkpt>
      <trkpt lat="44.93902" lon="4.66879">
        <ele>727</ele>
      </trkpt>
      <trkpt lat="44.9392" lon="4.66881">
        <ele>726.6</ele>
      </trkpt>
      <trkpt lat="44.93937" lon="4.6688">
        <ele>726.4</ele>
      </trkpt>
      <trkpt lat="44.93951" lon="4.66879">
        <ele>726.3</ele>
      </trkpt>
      <trkpt lat="44.93973" lon="4.66874">
        <ele>726.8</ele>
      </trkpt>
      <trkpt lat="44.93995" lon="4.66867">
        <ele>727.9</ele>
      </trkpt>
      <trkpt lat="44.9402" lon="4.66853">
        <ele>730</ele>
      </trkpt>
      <trkpt lat="44.94036" lon="4.66844">
        <ele>730.8</ele>
      </trkpt>
      <trkpt lat="44.94049" lon="4.66835">
        <ele>731.4</ele>
      </trkpt>
      <trkpt lat="44.94073" lon="4.66815">
        <ele>731.8</ele>
      </trkpt>
      <trkpt lat="44.94096" lon="4.66796">
        <ele>731.4</ele>
      </trkpt>
      <trkpt lat="44.94112" lon="4.6676">
        <ele>733.1</ele>
      </trkpt>
      <trkpt lat="44.94116" lon="4.66749">
        <ele>733.6</ele>
      </trkpt>
      <trkpt lat="44.94119" lon="4.66735">
        <ele>733.9</ele>
      </trkpt>
      <trkpt lat="44.94121" lon="4.66726">
        <ele>734</ele>
      </trkpt>
      <trkpt lat="44.94124" lon="4.66719">
        <ele>733.9</ele>
      </trkpt>
      <trkpt lat="44.9413" lon="4.6671">
        <ele>733.3</ele>
      </trkpt>
      <trkpt lat="44.94138" lon="4.66725">
        <ele>731.2</ele>
      </trkpt>
      <trkpt lat="44.94147" lon="4.66741">
        <ele>728.7</ele>
      </trkpt>
      <trkpt lat="44.94155" lon="4.66753">
        <ele>726.8</ele>
      </trkpt>
      <trkpt lat="44.94161" lon="4.6676">
        <ele>725.5</ele>
      </trkpt>
      <trkpt lat="44.94165" lon="4.66761">
        <ele>724.8</ele>
      </trkpt>
      <trkpt lat="44.9417" lon="4.66761">
        <ele>724</ele>
      </trkpt>
      <trkpt lat="44.94182" lon="4.66756">
        <ele>722.6</ele>
      </trkpt>
      <trkpt lat="44.94191" lon="4.66752">
        <ele>721.5</ele>
      </trkpt>
      <trkpt lat="44.94195" lon="4.66748">
        <ele>721</ele>
      </trkpt>
      <trkpt lat="44.94203" lon="4.66742">
        <ele>720.3</ele>
      </trkpt>
      <trkpt lat="44.94206" lon="4.66734">
        <ele>720.3</ele>
      </trkpt>
      <trkpt lat="44.94211" lon="4.66721">
        <ele>720.4</ele>
      </trkpt>
      <trkpt lat="44.94217" lon="4.66712">
        <ele>720.2</ele>
      </trkpt>
      <trkpt lat="44.94225" lon="4.66705">
        <ele>719.6</ele>
      </trkpt>
      <trkpt lat="44.94234" lon="4.66699">
        <ele>718.7</ele>
      </trkpt>
      <trkpt lat="44.94246" lon="4.66696">
        <ele>717.4</ele>
      </trkpt>
      <trkpt lat="44.94257" lon="4.66695">
        <ele>716.8</ele>
      </trkpt>
      <trkpt lat="44.94266" lon="4.66692">
        <ele>716.6</ele>
      </trkpt>
      <trkpt lat="44.94273" lon="4.66686">
        <ele>716.7</ele>
      </trkpt>
      <trkpt lat="44.94278" lon="4.6668">
        <ele>717</ele>
      </trkpt>
      <trkpt lat="44.94281" lon="4.66672">
        <ele>717.5</ele>
      </trkpt>
      <trkpt lat="44.94282" lon="4.66658">
        <ele>718.3</ele>
      </trkpt>
      <trkpt lat="44.94282" lon="4.6665">
        <ele>718.8</ele>
      </trkpt>
      <trkpt lat="44.94285" lon="4.66638">
        <ele>719.5</ele>
      </trkpt>
      <trkpt lat="44.94288" lon="4.6663">
        <ele>720</ele>
      </trkpt>
      <trkpt lat="44.94293" lon="4.66622">
        <ele>720.4</ele>
      </trkpt>
      <trkpt lat="44.943" lon="4.66612">
        <ele>721.2</ele>
      </trkpt>
      <trkpt lat="44.94308" lon="4.66604">
        <ele>721.8</ele>
      </trkpt>
      <trkpt lat="44.94321" lon="4.66596">
        <ele>722.6</ele>
      </trkpt>
      <trkpt lat="44.94336" lon="4.66587">
        <ele>723.7</ele>
      </trkpt>
      <trkpt lat="44.94369" lon="4.66573">
        <ele>725.9</ele>
      </trkpt>
      <trkpt lat="44.94394" lon="4.66561">
        <ele>727.9</ele>
      </trkpt>
      <trkpt lat="44.94404" lon="4.66559">
        <ele>728.4</ele>
      </trkpt>
      <trkpt lat="44.94419" lon="4.66559">
        <ele>728.6</ele>
      </trkpt>
      <trkpt lat="44.94434" lon="4.66562">
        <ele>728.7</ele>
      </trkpt>
      <trkpt lat="44.94448" lon="4.66568">
        <ele>728.4</ele>
      </trkpt>
      <trkpt lat="44.94464" lon="4.66575">
        <ele>728</ele>
      </trkpt>
      <trkpt lat="44.94477" lon="4.66584">
        <ele>727.4</ele>
      </trkpt>
      <trkpt lat="44.94491" lon="4.6659">
        <ele>727.4</ele>
      </trkpt>
      <trkpt lat="44.94498" lon="4.66593">
        <ele>727.4</ele>
      </trkpt>
      <trkpt lat="44.94508" lon="4.66593">
        <ele>727.5</ele>
      </trkpt>
      <trkpt lat="44.94519" lon="4.66592">
        <ele>727.7</ele>
      </trkpt>
      <trkpt lat="44.94532" lon="4.66591">
        <ele>727.9</ele>
      </trkpt>
      <trkpt lat="44.94556" lon="4.66586">
        <ele>728.5</ele>
      </trkpt>
      <trkpt lat="44.94569" lon="4.66584">
        <ele>728.8</ele>
      </trkpt>
      <trkpt lat="44.94581" lon="4.6658">
        <ele>729.1</ele>
      </trkpt>
      <trkpt lat="44.94596" lon="4.66572">
        <ele>729.2</ele>
      </trkpt>
      <trkpt lat="44.94614" lon="4.66563">
        <ele>729.2</ele>
      </trkpt>
      <trkpt lat="44.94634" lon="4.66553">
        <ele>729</ele>
      </trkpt>
      <trkpt lat="44.9463" lon="4.66535">
        <ele>729.5</ele>
      </trkpt>
      <trkpt lat="44.94624" lon="4.66523">
        <ele>730</ele>
      </trkpt>
      <trkpt lat="44.94611" lon="4.66518">
        <ele>730.5</ele>
      </trkpt>
      <trkpt lat="44.94601" lon="4.6651">
        <ele>731.1</ele>
      </trkpt>
      <trkpt lat="44.94586" lon="4.66496">
        <ele>731.8</ele>
      </trkpt>
      <trkpt lat="44.94569" lon="4.66481">
        <ele>732.8</ele>
      </trkpt>
      <trkpt lat="44.94547" lon="4.66467">
        <ele>734.6</ele>
      </trkpt>
      <trkpt lat="44.94521" lon="4.66454">
        <ele>737.3</ele>
      </trkpt>
      <trkpt lat="44.94505" lon="4.66445">
        <ele>739.2</ele>
      </trkpt>
      <trkpt lat="44.94484" lon="4.66436">
        <ele>740.7</ele>
      </trkpt>
      <trkpt lat="44.9448" lon="4.66426">
        <ele>741.6</ele>
      </trkpt>
      <trkpt lat="44.94474" lon="4.66414">
        <ele>742.6</ele>
      </trkpt>
      <trkpt lat="44.94469" lon="4.664">
        <ele>743.3</ele>
      </trkpt>
      <trkpt lat="44.94467" lon="4.66382">
        <ele>743.9</ele>
      </trkpt>
      <trkpt lat="44.94462" lon="4.66345">
        <ele>745.3</ele>
      </trkpt>
      <trkpt lat="44.9446" lon="4.66329">
        <ele>745.8</ele>
      </trkpt>
      <trkpt lat="44.94455" lon="4.66315">
        <ele>746.1</ele>
      </trkpt>
      <trkpt lat="44.94452" lon="4.66301">
        <ele>746.1</ele>
      </trkpt>
      <trkpt lat="44.94449" lon="4.66289">
        <ele>746.3</ele>
      </trkpt>
      <trkpt lat="44.94443" lon="4.66272">
        <ele>746.4</ele>
      </trkpt>
      <trkpt lat="44.94435" lon="4.66256">
        <ele>746.8</ele>
      </trkpt>
      <trkpt lat="44.94426" lon="4.6624">
        <ele>747.3</ele>
      </trkpt>
      <trkpt lat="44.94419" lon="4.66225">
        <ele>747.5</ele>
      </trkpt>
      <trkpt lat="44.94416" lon="4.66212">
        <ele>747.6</ele>
      </trkpt>
      <trkpt lat="44.94414" lon="4.66204">
        <ele>747.6</ele>
      </trkpt>
      <trkpt lat="44.94415" lon="4.66195">
        <ele>747.5</ele>
      </trkpt>
      <trkpt lat="44.94417" lon="4.66174">
        <ele>747.1</ele>
      </trkpt>
      <trkpt lat="44.9442" lon="4.66159">
        <ele>747.2</ele>
      </trkpt>
      <trkpt lat="44.94422" lon="4.66151">
        <ele>747.6</ele>
      </trkpt>
      <trkpt lat="44.94425" lon="4.66147">
        <ele>747.7</ele>
      </trkpt>
      <trkpt lat="44.94432" lon="4.66141">
        <ele>747.7</ele>
      </trkpt>
      <trkpt lat="44.94441" lon="4.66132">
        <ele>747.8</ele>
      </trkpt>
      <trkpt lat="44.94445" lon="4.66123">
        <ele>748.1</ele>
      </trkpt>
      <trkpt lat="44.94448" lon="4.66111">
        <ele>748.6</ele>
      </trkpt>
      <trkpt lat="44.9445" lon="4.66099">
        <ele>749</ele>
      </trkpt>
      <trkpt lat="44.94451" lon="4.66087">
        <ele>749.6</ele>
      </trkpt>
      <trkpt lat="44.9445" lon="4.66074">
        <ele>750.1</ele>
      </trkpt>
      <trkpt lat="44.94449" lon="4.66062">
        <ele>750.6</ele>
      </trkpt>
      <trkpt lat="44.94447" lon="4.66051">
        <ele>751.1</ele>
      </trkpt>
      <trkpt lat="44.94446" lon="4.6604">
        <ele>751.5</ele>
      </trkpt>
      <trkpt lat="44.94447" lon="4.66023">
        <ele>752</ele>
      </trkpt>
      <trkpt lat="44.9445" lon="4.66012">
        <ele>752.2</ele>
      </trkpt>
      <trkpt lat="44.94451" lon="4.66007">
        <ele>752.3</ele>
        <extensions>
          <visugpx:TrkExtension xmlns:visugpx="https://www.visugpx.com/editgpx/">
            <visugpx:node>11</visugpx:node>
            </visugpx:TrkExtension>
        </extensions>
      </trkpt>
      <trkpt lat="44.94456" lon="4.65994">
        <ele>752.4</ele>
      </trkpt>
      <trkpt lat="44.94467" lon="4.65966">
        <ele>752.5</ele>
      </trkpt>
      <trkpt lat="44.94476" lon="4.6594">
        <ele>753</ele>
      </trkpt>
      <trkpt lat="44.94486" lon="4.65905">
        <ele>753.4</ele>
      </trkpt>
      <trkpt lat="44.94494" lon="4.65883">
        <ele>752.9</ele>
      </trkpt>
      <trkpt lat="44.94502" lon="4.65865">
        <ele>752.4</ele>
      </trkpt>
      <trkpt lat="44.94511" lon="4.65853">
        <ele>752.3</ele>
      </trkpt>
      <trkpt lat="44.94521" lon="4.65846">
        <ele>752.3</ele>
      </trkpt>
      <trkpt lat="44.94528" lon="4.65843">
        <ele>752.3</ele>
      </trkpt>
      <trkpt lat="44.94535" lon="4.65842">
        <ele>752.4</ele>
      </trkpt>
      <trkpt lat="44.94548" lon="4.65842">
        <ele>752.5</ele>
      </trkpt>
      <trkpt lat="44.94565" lon="4.65843">
        <ele>752.6</ele>
      </trkpt>
      <trkpt lat="44.94591" lon="4.65845">
        <ele>751.8</ele>
      </trkpt>
      <trkpt lat="44.94604" lon="4.65845">
        <ele>750.2</ele>
      </trkpt>
      <trkpt lat="44.94613" lon="4.65841">
        <ele>749.3</ele>
      </trkpt>
      <trkpt lat="44.94615" lon="4.6584">
        <ele>749</ele>
      </trkpt>
      <trkpt lat="44.94626" lon="4.65832">
        <ele>747.8</ele>
      </trkpt>
      <trkpt lat="44.94638" lon="4.65824">
        <ele>745.9</ele>
      </trkpt>
      <trkpt lat="44.94649" lon="4.65813">
        <ele>743.9</ele>
      </trkpt>
      <trkpt lat="44.94661" lon="4.65795">
        <ele>741.7</ele>
      </trkpt>
      <trkpt lat="44.9467" lon="4.6578">
        <ele>740.5</ele>
      </trkpt>
      <trkpt lat="44.94678" lon="4.65771">
        <ele>740.1</ele>
      </trkpt>
      <trkpt lat="44.94688" lon="4.65761">
        <ele>739.9</ele>
      </trkpt>
      <trkpt lat="44.94707" lon="4.65751">
        <ele>740</ele>
      </trkpt>
      <trkpt lat="44.94733" lon="4.6574">
        <ele>740.3</ele>
      </trkpt>
      <trkpt lat="44.94758" lon="4.65732">
        <ele>740.2</ele>
      </trkpt>
      <trkpt lat="44.94774" lon="4.65724">
        <ele>739.2</ele>
      </trkpt>
      <trkpt lat="44.94782" lon="4.65719">
        <ele>738.7</ele>
      </trkpt>
      <trkpt lat="44.94788" lon="4.65711">
        <ele>738.3</ele>
      </trkpt>
      <trkpt lat="44.94794" lon="4.65699">
        <ele>737.7</ele>
      </trkpt>
      <trkpt lat="44.94799" lon="4.65682">
        <ele>737</ele>
      </trkpt>
      <trkpt lat="44.94807" lon="4.65668">
        <ele>736.3</ele>
      </trkpt>
      <trkpt lat="44.94812" lon="4.65663">
        <ele>735.8</ele>
      </trkpt>
      <trkpt lat="44.94817" lon="4.6566">
        <ele>735.3</ele>
      </trkpt>
      <trkpt lat="44.94826" lon="4.65656">
        <ele>734.7</ele>
      </trkpt>
      <trkpt lat="44.94834" lon="4.65651">
        <ele>734</ele>
      </trkpt>
      <trkpt lat="44.94839" lon="4.65645">
        <ele>733.2</ele>
      </trkpt>
      <trkpt lat="44.94842" lon="4.65637">
        <ele>732.5</ele>
      </trkpt>
      <trkpt lat="44.94847" lon="4.65623">
        <ele>731.4</ele>
      </trkpt>
      <trkpt lat="44.94854" lon="4.65608">
        <ele>730.4</ele>
      </trkpt>
      <trkpt lat="44.94857" lon="4.65598">
        <ele>729.9</ele>
      </trkpt>
      <trkpt lat="44.94863" lon="4.65585">
        <ele>729.3</ele>
      </trkpt>
      <trkpt lat="44.94868" lon="4.65577">
        <ele>729.3</ele>
      </trkpt>
      <trkpt lat="44.94878" lon="4.65567">
        <ele>729.5</ele>
      </trkpt>
      <trkpt lat="44.94878" lon="4.65567">
        <ele>729.5</ele>
      </trkpt>
      <trkpt lat="44.94887" lon="4.65573">
        <ele>729.2</ele>
      </trkpt>
      <trkpt lat="44.94892" lon="4.65576">
        <ele>729</ele>
      </trkpt>
      <trkpt lat="44.94902" lon="4.65578">
        <ele>728.8</ele>
      </trkpt>
      <trkpt lat="44.94916" lon="4.65578">
        <ele>728.6</ele>
      </trkpt>
      <trkpt lat="44.94929" lon="4.65573">
        <ele>728.4</ele>
      </trkpt>
      <trkpt lat="44.94945" lon="4.65569">
        <ele>728.1</ele>
      </trkpt>
      <trkpt lat="44.94953" lon="4.65567">
        <ele>727.8</ele>
      </trkpt>
      <trkpt lat="44.94959" lon="4.65567">
        <ele>727.5</ele>
      </trkpt>
      <trkpt lat="44.94963" lon="4.65567">
        <ele>727.3</ele>
      </trkpt>
      <trkpt lat="44.94973" lon="4.65571">
        <ele>726.5</ele>
      </trkpt>
      <trkpt lat="44.94986" lon="4.65573">
        <ele>725.6</ele>
      </trkpt>
      <trkpt lat="44.95003" lon="4.65575">
        <ele>724.7</ele>
      </trkpt>
      <trkpt lat="44.95015" lon="4.65574">
        <ele>724.1</ele>
      </trkpt>
      <trkpt lat="44.95024" lon="4.65573">
        <ele>723.8</ele>
      </trkpt>
      <trkpt lat="44.95032" lon="4.65572">
        <ele>723.5</ele>
      </trkpt>
      <trkpt lat="44.9504" lon="4.65573">
        <ele>723</ele>
      </trkpt>
      <trkpt lat="44.95062" lon="4.65578">
        <ele>721.4</ele>
      </trkpt>
      <trkpt lat="44.95078" lon="4.65584">
        <ele>720.2</ele>
      </trkpt>
      <trkpt lat="44.95088" lon="4.6559">
        <ele>719.2</ele>
      </trkpt>
      <trkpt lat="44.95096" lon="4.65595">
        <ele>718</ele>
      </trkpt>
      <trkpt lat="44.95105" lon="4.65596">
        <ele>717</ele>
      </trkpt>
      <trkpt lat="44.95108" lon="4.65596">
        <ele>716.5</ele>
      </trkpt>
      <trkpt lat="44.9512" lon="4.65596">
        <ele>714.9</ele>
      </trkpt>
      <trkpt lat="44.95129" lon="4.65597">
        <ele>713.9</ele>
      </trkpt>
      <trkpt lat="44.95138" lon="4.65604">
        <ele>712.9</ele>
      </trkpt>
      <trkpt lat="44.95151" lon="4.65616">
        <ele>712</ele>
      </trkpt>
      <trkpt lat="44.95161" lon="4.65627">
        <ele>711.7</ele>
      </trkpt>
      <trkpt lat="44.95169" lon="4.65634">
        <ele>711.3</ele>
      </trkpt>
      <trkpt lat="44.95177" lon="4.65638">
        <ele>709.8</ele>
      </trkpt>
      <trkpt lat="44.95188" lon="4.65639">
        <ele>707.8</ele>
        <extensions>
          <visugpx:TrkExtension xmlns:visugpx="https://www.visugpx.com/editgpx/">
            <visugpx:node>13</visugpx:node>
            </visugpx:TrkExtension>
        </extensions>
      </trkpt>
      <trkpt lat="44.9519" lon="4.65639">
        <ele>707.4</ele>
      </trkpt>
      <trkpt lat="44.95204" lon="4.65636">
        <ele>704.3</ele>
      </trkpt>
      <trkpt lat="44.95216" lon="4.65627">
        <ele>701.3</ele>
      </trkpt>
      <trkpt lat="44.95224" lon="4.6562">
        <ele>699.4</ele>
      </trkpt>
      <trkpt lat="44.95238" lon="4.65609">
        <ele>695.8</ele>
      </trkpt>
      <trkpt lat="44.95259" lon="4.65588">
        <ele>691.9</ele>
      </trkpt>
      <trkpt lat="44.95278" lon="4.65566">
        <ele>689.7</ele>
      </trkpt>
      <trkpt lat="44.95283" lon="4.65565">
        <ele>689.4</ele>
      </trkpt>
      <trkpt lat="44.9529" lon="4.65563">
        <ele>688.9</ele>
      </trkpt>
      <trkpt lat="44.95307" lon="4.65554">
        <ele>687.8</ele>
      </trkpt>
      <trkpt lat="44.95318" lon="4.65545">
        <ele>686.8</ele>
      </trkpt>
      <trkpt lat="44.95328" lon="4.65541">
        <ele>686.2</ele>
      </trkpt>
      <trkpt lat="44.95339" lon="4.65539">
        <ele>685.6</ele>
      </trkpt>
      <trkpt lat="44.95352" lon="4.65537">
        <ele>684.8</ele>
      </trkpt>
      <trkpt lat="44.95361" lon="4.65533">
        <ele>684.2</ele>
      </trkpt>
      <trkpt lat="44.95367" lon="4.6553">
        <ele>683.7</ele>
      </trkpt>
      <trkpt lat="44.95373" lon="4.65529">
        <ele>683.4</ele>
      </trkpt>
      <trkpt lat="44.95388" lon="4.65544">
        <ele>683.5</ele>
      </trkpt>
      <trkpt lat="44.95389" lon="4.65545">
        <ele>683.6</ele>
        <extensions>
          <visugpx:TrkExtension xmlns:visugpx="https://www.visugpx.com/editgpx/">
            <visugpx:node>14</visugpx:node>
            </visugpx:TrkExtension>
        </extensions>
      </trkpt>
      <trkpt lat="44.95404" lon="4.65561">
        <ele>684</ele>
      </trkpt>
      <trkpt lat="44.95421" lon="4.65588">
        <ele>684.6</ele>
      </trkpt>
      <trkpt lat="44.95436" lon="4.6562">
        <ele>682.8</ele>
      </trkpt>
      <trkpt lat="44.95445" lon="4.65644">
        <ele>681.3</ele>
      </trkpt>
      <trkpt lat="44.95453" lon="4.65673">
        <ele>679.5</ele>
      </trkpt>
      <trkpt lat="44.95459" lon="4.65691">
        <ele>678.5</ele>
      </trkpt>
      <trkpt lat="44.95463" lon="4.65706">
        <ele>677.8</ele>
      </trkpt>
      <trkpt lat="44.95463" lon="4.65735">
        <ele>678.1</ele>
      </trkpt>
      <trkpt lat="44.95462" lon="4.65752">
        <ele>678.1</ele>
      </trkpt>
      <trkpt lat="44.95463" lon="4.65758">
        <ele>677.8</ele>
      </trkpt>
      <trkpt lat="44.95463" lon="4.65763">
        <ele>677.5</ele>
      </trkpt>
      <trkpt lat="44.95464" lon="4.6577">
        <ele>677</ele>
      </trkpt>
      <trkpt lat="44.95465" lon="4.65774">
        <ele>676.6</ele>
      </trkpt>
      <trkpt lat="44.95469" lon="4.65779">
        <ele>675.7</ele>
      </trkpt>
      <trkpt lat="44.95467" lon="4.6579">
        <ele>675.7</ele>
      </trkpt>
      <trkpt lat="44.95468" lon="4.65805">
        <ele>674.9</ele>
      </trkpt>
      <trkpt lat="44.95471" lon="4.65822">
        <ele>673.7</ele>
      </trkpt>
      <trkpt lat="44.95478" lon="4.6584">
        <ele>672</ele>
      </trkpt>
      <trkpt lat="44.9548" lon="4.65857">
        <ele>671.2</ele>
      </trkpt>
      <trkpt lat="44.9548" lon="4.65868">
        <ele>670.8</ele>
      </trkpt>
      <trkpt lat="44.9548" lon="4.65874">
        <ele>670.6</ele>
      </trkpt>
      <trkpt lat="44.9548" lon="4.65878">
        <ele>670.4</ele>
      </trkpt>
      <trkpt lat="44.95481" lon="4.6588">
        <ele>670.2</ele>
      </trkpt>
      <trkpt lat="44.95483" lon="4.65885">
        <ele>669.7</ele>
      </trkpt>
      <trkpt lat="44.95486" lon="4.65893">
        <ele>668.9</ele>
      </trkpt>
      <trkpt lat="44.9549" lon="4.65899">
        <ele>668.1</ele>
      </trkpt>
      <trkpt lat="44.95497" lon="4.6591">
        <ele>666.7</ele>
      </trkpt>
      <trkpt lat="44.95506" lon="4.65922">
        <ele>665.8</ele>
      </trkpt>
      <trkpt lat="44.95513" lon="4.65933">
        <ele>665.8</ele>
      </trkpt>
      <trkpt lat="44.95525" lon="4.65955">
        <ele>665.5</ele>
      </trkpt>
      <trkpt lat="44.95541" lon="4.65978">
        <ele>663.7</ele>
      </trkpt>
      <trkpt lat="44.95552" lon="4.65992">
        <ele>661.9</ele>
      </trkpt>
      <trkpt lat="44.95561" lon="4.66005">
        <ele>660.4</ele>
      </trkpt>
      <trkpt lat="44.95564" lon="4.66012">
        <ele>660.1</ele>
      </trkpt>
      <trkpt lat="44.95566" lon="4.66019">
        <ele>659.8</ele>
      </trkpt>
      <trkpt lat="44.9557" lon="4.66024">
        <ele>659.1</ele>
      </trkpt>
      <trkpt lat="44.95574" lon="4.6603">
        <ele>658.5</ele>
      </trkpt>
      <trkpt lat="44.95587" lon="4.66045">
        <ele>656.8</ele>
      </trkpt>
      <trkpt lat="44.95602" lon="4.66062">
        <ele>656.1</ele>
      </trkpt>
      <trkpt lat="44.95612" lon="4.66071">
        <ele>655.8</ele>
      </trkpt>
      <trkpt lat="44.95611" lon="4.66077">
        <ele>656</ele>
        <extensions>
          <visugpx:TrkExtension xmlns:visugpx="https://www.visugpx.com/editgpx/">
            <visugpx:node>15</visugpx:node>
            </visugpx:TrkExtension>
        </extensions>
      </trkpt>
      <trkpt lat="44.9561" lon="4.66096">
        <ele>656.7</ele>
      </trkpt>
      <trkpt lat="44.9561" lon="4.66106">
        <ele>657</ele>
      </trkpt>
      <trkpt lat="44.95608" lon="4.66136">
        <ele>657.9</ele>
      </trkpt>
      <trkpt lat="44.95608" lon="4.66164">
        <ele>658.6</ele>
      </trkpt>
      <trkpt lat="44.95608" lon="4.66188">
        <ele>659.2</ele>
      </trkpt>
      <trkpt lat="44.95609" lon="4.66204">
        <ele>659.4</ele>
      </trkpt>
      <trkpt lat="44.9561" lon="4.66212">
        <ele>659.6</ele>
      </trkpt>
      <trkpt lat="44.95615" lon="4.66274">
        <ele>660.1</ele>
      </trkpt>
      <trkpt lat="44.95626" lon="4.66268">
        <ele>659.9</ele>
      </trkpt>
      <trkpt lat="44.9563" lon="4.66275">
        <ele>659.7</ele>
      </trkpt>
      <trkpt lat="44.95635" lon="4.66286">
        <ele>659.5</ele>
      </trkpt>
      <trkpt lat="44.95641" lon="4.66295">
        <ele>659.2</ele>
      </trkpt>
      <trkpt lat="44.95653" lon="4.66301">
        <ele>658.8</ele>
      </trkpt>
      <trkpt lat="44.95662" lon="4.66308">
        <ele>658.4</ele>
      </trkpt>
      <trkpt lat="44.95685" lon="4.66317">
        <ele>656.5</ele>
      </trkpt>
      <trkpt lat="44.95691" lon="4.66319">
        <ele>655.8</ele>
      </trkpt>
      <trkpt lat="44.957" lon="4.6632">
        <ele>654.9</ele>
      </trkpt>
      <trkpt lat="44.95704" lon="4.66319">
        <ele>654.6</ele>
        <extensions>
          <visugpx:TrkExtension xmlns:visugpx="https://www.visugpx.com/editgpx/">
            <visugpx:node>16</visugpx:node>
            </visugpx:TrkExtension>
        </extensions>
      </trkpt>
      <trkpt lat="44.95715" lon="4.66312">
        <ele>653</ele>
        <time>2002-02-17T09:50:02Z</time>
      </trkpt>
      <trkpt lat="44.95734" lon="4.66297">
        <ele>653</ele>
        <time>2002-02-17T09:50:22Z</time>
      </trkpt>
      <trkpt lat="44.95752" lon="4.6629">
        <ele>653</ele>
        <time>2002-02-17T09:50:42Z</time>
      </trkpt>
      <trkpt lat="44.95756" lon="4.66303">
        <ele>653</ele>
        <time>2002-02-17T09:51:02Z</time>
      </trkpt>
      <trkpt lat="44.95775" lon="4.66305">
        <ele>655</ele>
        <time>2002-02-17T09:51:22Z</time>
      </trkpt>
      <trkpt lat="44.95796" lon="4.663">
        <ele>656</ele>
        <time>2002-02-17T09:51:42Z</time>
      </trkpt>
      <trkpt lat="44.95818" lon="4.66307">
        <ele>659</ele>
        <time>2002-02-17T09:52:02Z</time>
      </trkpt>
      <trkpt lat="44.95833" lon="4.66327">
        <ele>661</ele>
        <time>2002-02-17T09:52:22Z</time>
      </trkpt>
      <trkpt lat="44.95843" lon="4.66349">
        <ele>663</ele>
        <time>2002-02-17T09:52:42Z</time>
      </trkpt>
      <trkpt lat="44.95857" lon="4.66369">
        <ele>664</ele>
        <time>2002-02-17T09:53:02Z</time>
      </trkpt>
      <trkpt lat="44.95865" lon="4.66385">
        <ele>665</ele>
        <time>2002-02-17T09:53:22Z</time>
      </trkpt>
      <trkpt lat="44.95869" lon="4.66357">
        <ele>666</ele>
        <time>2002-02-17T09:53:42Z</time>
      </trkpt>
      <trkpt lat="44.95878" lon="4.66331">
        <ele>668</ele>
        <time>2002-02-17T09:54:02Z</time>
      </trkpt>
      <trkpt lat="44.95891" lon="4.66312">
        <ele>670</ele>
        <time>2002-02-17T09:54:22Z</time>
      </trkpt>
      <trkpt lat="44.95899" lon="4.66284">
        <ele>673</ele>
        <time>2002-02-17T09:54:42Z</time>
      </trkpt>
      <trkpt lat="44.95906" lon="4.66262">
        <ele>675</ele>
        <time>2002-02-17T09:55:02Z</time>
      </trkpt>
      <trkpt lat="44.9591" lon="4.66239">
        <ele>677</ele>
        <time>2002-02-17T09:55:22Z</time>
      </trkpt>
      <trkpt lat="44.95912" lon="4.66219">
        <ele>678</ele>
        <time>2002-02-17T09:55:42Z</time>
      </trkpt>
      <trkpt lat="44.95923" lon="4.66206">
        <ele>681</ele>
        <time>2002-02-17T09:56:02Z</time>
      </trkpt>
      <trkpt lat="44.95929" lon="4.66191">
        <ele>683</ele>
        <time>2002-02-17T09:56:22Z</time>
      </trkpt>
      <trkpt lat="44.9594" lon="4.66177">
        <ele>685</ele>
        <time>2002-02-17T09:56:42Z</time>
      </trkpt>
      <trkpt lat="44.95951" lon="4.66164">
        <ele>687</ele>
        <time>2002-02-17T09:57:02Z</time>
      </trkpt>
      <trkpt lat="44.95962" lon="4.66157">
        <ele>689</ele>
        <time>2002-02-17T09:57:22Z</time>
      </trkpt>
      <trkpt lat="44.95977" lon="4.66148">
        <ele>692</ele>
        <time>2002-02-17T09:57:42Z</time>
      </trkpt>
      <trkpt lat="44.9599" lon="4.66137">
        <ele>694</ele>
        <time>2002-02-17T09:58:02Z</time>
      </trkpt>
      <trkpt lat="44.96002" lon="4.66131">
        <ele>696</ele>
        <time>2002-02-17T09:58:22Z</time>
      </trkpt>
      <trkpt lat="44.96015" lon="4.66123">
        <ele>698</ele>
        <time>2002-02-17T09:58:42Z</time>
      </trkpt>
      <trkpt lat="44.96028" lon="4.66114">
        <ele>700</ele>
        <time>2002-02-17T09:59:02Z</time>
      </trkpt>
      <trkpt lat="44.96043" lon="4.66106">
        <ele>702</ele>
        <time>2002-02-17T09:59:22Z</time>
      </trkpt>
      <trkpt lat="44.96059" lon="4.66098">
        <ele>703</ele>
        <time>2002-02-17T09:59:42Z</time>
      </trkpt>
      <trkpt lat="44.96069" lon="4.66078">
        <ele>705</ele>
        <time>2002-02-17T10:00:02Z</time>
      </trkpt>
      <trkpt lat="44.96082" lon="4.6606">
        <ele>705</ele>
        <time>2002-02-17T10:00:22Z</time>
      </trkpt>
      <trkpt lat="44.96099" lon="4.66044">
        <ele>706</ele>
        <time>2002-02-17T10:00:42Z</time>
      </trkpt>
      <trkpt lat="44.96114" lon="4.66024">
        <ele>707</ele>
        <time>2002-02-17T10:01:02Z</time>
      </trkpt>
      <trkpt lat="44.96114" lon="4.66024">
        <ele>707</ele>
        <time>2002-02-17T10:01:22Z</time>
      </trkpt>
      <trkpt lat="44.96114" lon="4.66022">
        <ele>707</ele>
        <time>2002-02-17T10:01:42Z</time>
      </trkpt>
      <trkpt lat="44.96117" lon="4.66021">
        <ele>708</ele>
        <time>2002-02-17T10:02:02Z</time>
      </trkpt>
      <trkpt lat="44.96117" lon="4.66018">
        <ele>708</ele>
        <time>2002-02-17T10:02:22Z</time>
      </trkpt>
      <trkpt lat="44.96125" lon="4.66004">
        <ele>708</ele>
        <time>2002-02-17T10:02:42Z</time>
      </trkpt>
      <trkpt lat="44.96138" lon="4.65986">
        <ele>708</ele>
        <time>2002-02-17T10:03:02Z</time>
      </trkpt>
      <trkpt lat="44.96152" lon="4.65966">
        <ele>708</ele>
        <time>2002-02-17T10:03:22Z</time>
      </trkpt>
      <trkpt lat="44.96168" lon="4.65945">
        <ele>709</ele>
        <time>2002-02-17T10:03:42Z</time>
      </trkpt>
      <trkpt lat="44.96183" lon="4.65924">
        <ele>711</ele>
        <time>2002-02-17T10:04:02Z</time>
      </trkpt>
      <trkpt lat="44.96196" lon="4.659">
        <ele>712</ele>
        <time>2002-02-17T10:04:22Z</time>
      </trkpt>
      <trkpt lat="44.96206" lon="4.65876">
        <ele>713</ele>
        <time>2002-02-17T10:04:42Z</time>
      </trkpt>
      <trkpt lat="44.96217" lon="4.65852">
        <ele>714</ele>
        <time>2002-02-17T10:05:02Z</time>
      </trkpt>
      <trkpt lat="44.9623" lon="4.65829">
        <ele>716</ele>
        <time>2002-02-17T10:05:22Z</time>
      </trkpt>
      <trkpt lat="44.96243" lon="4.65801">
        <ele>716</ele>
        <time>2002-02-17T10:05:42Z</time>
      </trkpt>
      <trkpt lat="44.96261" lon="4.65774">
        <ele>717</ele>
        <time>2002-02-17T10:06:02Z</time>
      </trkpt>
      <trkpt lat="44.96275" lon="4.6575">
        <ele>717</ele>
        <time>2002-02-17T10:06:22Z</time>
      </trkpt>
      <trkpt lat="44.96295" lon="4.65728">
        <ele>718</ele>
        <time>2002-02-17T10:06:42Z</time>
      </trkpt>
      <trkpt lat="44.96309" lon="4.65704">
        <ele>717</ele>
        <time>2002-02-17T10:07:02Z</time>
      </trkpt>
      <trkpt lat="44.96327" lon="4.65679">
        <ele>718</ele>
        <time>2002-02-17T10:07:22Z</time>
      </trkpt>
      <trkpt lat="44.96343" lon="4.65656">
        <ele>718</ele>
        <time>2002-02-17T10:07:42Z</time>
      </trkpt>
      <trkpt lat="44.96359" lon="4.65629">
        <ele>718</ele>
        <time>2002-02-17T10:08:02Z</time>
      </trkpt>
      <trkpt lat="44.96367" lon="4.65602">
        <ele>716</ele>
        <time>2002-02-17T10:08:22Z</time>
      </trkpt>
      <trkpt lat="44.96374" lon="4.65575">
        <ele>714</ele>
        <time>2002-02-17T10:08:42Z</time>
      </trkpt>
      <trkpt lat="44.9638" lon="4.6555">
        <ele>713</ele>
        <time>2002-02-17T10:09:02Z</time>
      </trkpt>
      <trkpt lat="44.96396" lon="4.65529">
        <ele>713</ele>
        <time>2002-02-17T10:09:22Z</time>
      </trkpt>
      <trkpt lat="44.96415" lon="4.65512">
        <ele>713</ele>
        <time>2002-02-17T10:09:42Z</time>
      </trkpt>
      <trkpt lat="44.96436" lon="4.65495">
        <ele>712</ele>
        <time>2002-02-17T10:10:02Z</time>
      </trkpt>
      <trkpt lat="44.96459" lon="4.65484">
        <ele>711</ele>
        <time>2002-02-17T10:10:22Z</time>
      </trkpt>
      <trkpt lat="44.96484" lon="4.65477">
        <ele>710</ele>
        <time>2002-02-17T10:10:42Z</time>
      </trkpt>
      <trkpt lat="44.96504" lon="4.65479">
        <ele>709</ele>
        <time>2002-02-17T10:11:02Z</time>
        <extensions>
          <visugpx:TrkExtension xmlns:visugpx="https://www.visugpx.com/editgpx/">
            <visugpx:node>17</visugpx:node>
            </visugpx:TrkExtension>
        </extensions>
      </trkpt>
      <trkpt lat="44.96508" lon="4.65481">
        <ele>704.3</ele>
      </trkpt>
      <trkpt lat="44.96504" lon="4.65494">
        <ele>705.9</ele>
      </trkpt>
      <trkpt lat="44.96504" lon="4.65503">
        <ele>706.9</ele>
      </trkpt>
      <trkpt lat="44.96511" lon="4.65525">
        <ele>708.7</ele>
      </trkpt>
      <trkpt lat="44.96517" lon="4.65546">
        <ele>710.1</ele>
      </trkpt>
      <trkpt lat="44.96518" lon="4.65562">
        <ele>711.6</ele>
      </trkpt>
      <trkpt lat="44.96516" lon="4.65581">
        <ele>713.9</ele>
      </trkpt>
      <trkpt lat="44.96511" lon="4.656">
        <ele>716.5</ele>
      </trkpt>
      <trkpt lat="44.9651" lon="4.65627">
        <ele>719.1</ele>
      </trkpt>
      <trkpt lat="44.9651" lon="4.65648">
        <ele>720.9</ele>
      </trkpt>
      <trkpt lat="44.96514" lon="4.65687">
        <ele>725</ele>
      </trkpt>
      <trkpt lat="44.9652" lon="4.65719">
        <ele>729</ele>
      </trkpt>
      <trkpt lat="44.96528" lon="4.65749">
        <ele>732.5</ele>
      </trkpt>
      <trkpt lat="44.96551" lon="4.65819">
        <ele>740.6</ele>
      </trkpt>
      <trkpt lat="44.96561" lon="4.65846">
        <ele>743.5</ele>
      </trkpt>
      <trkpt lat="44.96566" lon="4.65859">
        <ele>745</ele>
      </trkpt>
      <trkpt lat="44.9657" lon="4.65873">
        <ele>746.5</ele>
      </trkpt>
      <trkpt lat="44.96573" lon="4.65903">
        <ele>750.5</ele>
      </trkpt>
      <trkpt lat="44.96572" lon="4.65932">
        <ele>753.5</ele>
      </trkpt>
      <trkpt lat="44.9657" lon="4.65958">
        <ele>755.2</ele>
      </trkpt>
      <trkpt lat="44.96568" lon="4.65974">
        <ele>756.5</ele>
      </trkpt>
      <trkpt lat="44.96568" lon="4.65994">
        <ele>757.7</ele>
      </trkpt>
      <trkpt lat="44.96567" lon="4.66017">
        <ele>758.2</ele>
      </trkpt>
      <trkpt lat="44.96567" lon="4.66033">
        <ele>758.2</ele>
      </trkpt>
      <trkpt lat="44.96568" lon="4.66062">
        <ele>758.1</ele>
      </trkpt>
      <trkpt lat="44.9657" lon="4.66079">
        <ele>757.9</ele>
      </trkpt>
      <trkpt lat="44.96572" lon="4.6609">
        <ele>757.6</ele>
      </trkpt>
      <trkpt lat="44.96574" lon="4.66119">
        <ele>757.4</ele>
      </trkpt>
      <trkpt lat="44.96576" lon="4.66154">
        <ele>757</ele>
      </trkpt>
      <trkpt lat="44.96577" lon="4.66162">
        <ele>756.9</ele>
      </trkpt>
      <trkpt lat="44.96581" lon="4.66171">
        <ele>756.8</ele>
      </trkpt>
      <trkpt lat="44.96588" lon="4.66187">
        <ele>757.6</ele>
      </trkpt>
      <trkpt lat="44.96594" lon="4.66217">
        <ele>760</ele>
      </trkpt>
      <trkpt lat="44.96595" lon="4.6622">
        <ele>760.2</ele>
      </trkpt>
      <trkpt lat="44.96597" lon="4.66223">
        <ele>760.3</ele>
      </trkpt>
      <trkpt lat="44.96599" lon="4.66228">
        <ele>760.4</ele>
      </trkpt>
      <trkpt lat="44.96602" lon="4.66233">
        <ele>760.5</ele>
      </trkpt>
      <trkpt lat="44.96605" lon="4.66239">
        <ele>760.7</ele>
      </trkpt>
      <trkpt lat="44.96609" lon="4.66247">
        <ele>761.1</ele>
      </trkpt>
      <trkpt lat="44.96611" lon="4.66255">
        <ele>761.4</ele>
      </trkpt>
      <trkpt lat="44.96613" lon="4.66263">
        <ele>761.7</ele>
      </trkpt>
      <trkpt lat="44.96616" lon="4.6627">
        <ele>761.9</ele>
      </trkpt>
      <trkpt lat="44.96618" lon="4.66279">
        <ele>762.1</ele>
      </trkpt>
      <trkpt lat="44.9662" lon="4.66285">
        <ele>762.3</ele>
      </trkpt>
      <trkpt lat="44.96621" lon="4.66291">
        <ele>762.7</ele>
      </trkpt>
      <trkpt lat="44.96622" lon="4.66297">
        <ele>763</ele>
      </trkpt>
      <trkpt lat="44.96621" lon="4.66303">
        <ele>763.5</ele>
      </trkpt>
      <trkpt lat="44.96621" lon="4.66309">
        <ele>764.1</ele>
      </trkpt>
      <trkpt lat="44.96621" lon="4.66315">
        <ele>764.6</ele>
      </trkpt>
      <trkpt lat="44.96621" lon="4.6632">
        <ele>765</ele>
      </trkpt>
      <trkpt lat="44.96621" lon="4.66333">
        <ele>766.2</ele>
      </trkpt>
      <trkpt lat="44.9662" lon="4.66341">
        <ele>766.3</ele>
      </trkpt>
      <trkpt lat="44.9662" lon="4.66347">
        <ele>766.4</ele>
      </trkpt>
      <trkpt lat="44.9662" lon="4.66358">
        <ele>766.5</ele>
      </trkpt>
      <trkpt lat="44.9662" lon="4.66366">
        <ele>766.6</ele>
      </trkpt>
      <trkpt lat="44.96621" lon="4.66373">
        <ele>766.6</ele>
      </trkpt>
      <trkpt lat="44.96621" lon="4.66391">
        <ele>766.7</ele>
      </trkpt>
      <trkpt lat="44.96622" lon="4.66399">
        <ele>766.7</ele>
      </trkpt>
      <trkpt lat="44.96622" lon="4.66407">
        <ele>766.7</ele>
      </trkpt>
      <trkpt lat="44.96622" lon="4.66416">
        <ele>766.8</ele>
      </trkpt>
      <trkpt lat="44.96623" lon="4.66434">
        <ele>767.5</ele>
      </trkpt>
      <trkpt lat="44.9663" lon="4.66483">
        <ele>769.9</ele>
      </trkpt>
      <trkpt lat="44.9663" lon="4.66493">
        <ele>770.5</ele>
      </trkpt>
      <trkpt lat="44.96627" lon="4.66506">
        <ele>770.5</ele>
      </trkpt>
      <trkpt lat="44.96619" lon="4.66526">
        <ele>769.4</ele>
      </trkpt>
      <trkpt lat="44.96616" lon="4.66537">
        <ele>768.8</ele>
      </trkpt>
      <trkpt lat="44.96615" lon="4.66546">
        <ele>768.5</ele>
      </trkpt>
      <trkpt lat="44.96618" lon="4.66552">
        <ele>768.8</ele>
      </trkpt>
      <trkpt lat="44.9664" lon="4.66569">
        <ele>771.2</ele>
      </trkpt>
      <trkpt lat="44.96645" lon="4.66572">
        <ele>771.9</ele>
      </trkpt>
      <trkpt lat="44.9665" lon="4.66575">
        <ele>772.6</ele>
      </trkpt>
      <trkpt lat="44.96674" lon="4.66596">
        <ele>775.6</ele>
      </trkpt>
      <trkpt lat="44.96703" lon="4.66619">
        <ele>777.9</ele>
      </trkpt>
      <trkpt lat="44.96751" lon="4.6666">
        <ele>784</ele>
      </trkpt>
      <trkpt lat="44.96779" lon="4.66688">
        <ele>777.8</ele>
      </trkpt>
      <trkpt lat="44.96801" lon="4.66722">
        <ele>773.5</ele>
      </trkpt>
      <trkpt lat="44.96845" lon="4.66796">
        <ele>765.3</ele>
      </trkpt>
      <trkpt lat="44.96865" lon="4.66838">
        <ele>761.2</ele>
      </trkpt>
      <trkpt lat="44.9687" lon="4.66864">
        <ele>759.8</ele>
      </trkpt>
      <trkpt lat="44.96868" lon="4.66915">
        <ele>763</ele>
      </trkpt>
      <trkpt lat="44.96869" lon="4.6696">
        <ele>760.5</ele>
      </trkpt>
      <trkpt lat="44.9688" lon="4.67001">
        <ele>755</ele>
      </trkpt>
      <trkpt lat="44.9688" lon="4.67032">
        <ele>751.6</ele>
      </trkpt>
      <trkpt lat="44.96874" lon="4.67068">
        <ele>749.4</ele>
      </trkpt>
      <trkpt lat="44.96868" lon="4.67083">
        <ele>749.1</ele>
      </trkpt>
      <trkpt lat="44.96859" lon="4.67095">
        <ele>748.9</ele>
      </trkpt>
      <trkpt lat="44.96842" lon="4.6711">
        <ele>749.1</ele>
      </trkpt>
      <trkpt lat="44.96813" lon="4.67123">
        <ele>753.6</ele>
      </trkpt>
      <trkpt lat="44.96801" lon="4.67135">
        <ele>754.5</ele>
      </trkpt>
      <trkpt lat="44.96789" lon="4.67149">
        <ele>754.8</ele>
      </trkpt>
      <trkpt lat="44.9678" lon="4.67179">
        <ele>752.2</ele>
      </trkpt>
      <trkpt lat="44.96776" lon="4.67202">
        <ele>750.8</ele>
      </trkpt>
      <trkpt lat="44.96776" lon="4.67228">
        <ele>747.8</ele>
        <extensions>
          <visugpx:TrkExtension xmlns:visugpx="https://www.visugpx.com/editgpx/">
            <visugpx:node>18</visugpx:node>
            </visugpx:TrkExtension>
        </extensions>
      </trkpt>
      <trkpt lat="44.96776" lon="4.67234">
        <ele>747.3</ele>
      </trkpt>
      <trkpt lat="44.9679" lon="4.67256">
        <ele>741.7</ele>
      </trkpt>
      <trkpt lat="44.96798" lon="4.67285">
        <ele>739.9</ele>
      </trkpt>
      <trkpt lat="44.96803" lon="4.67328">
        <ele>739.2</ele>
      </trkpt>
      <trkpt lat="44.96807" lon="4.67352">
        <ele>738.4</ele>
      </trkpt>
      <trkpt lat="44.9682" lon="4.67396">
        <ele>735.8</ele>
      </trkpt>
      <trkpt lat="44.96851" lon="4.67445">
        <ele>730.2</ele>
      </trkpt>
      <trkpt lat="44.96879" lon="4.67486">
        <ele>727.4</ele>
      </trkpt>
      <trkpt lat="44.96905" lon="4.6752">
        <ele>724.8</ele>
      </trkpt>
      <trkpt lat="44.96917" lon="4.67535">
        <ele>723.3</ele>
      </trkpt>
      <trkpt lat="44.96928" lon="4.67557">
        <ele>722.2</ele>
      </trkpt>
      <trkpt lat="44.96933" lon="4.67574">
        <ele>722.7</ele>
      </trkpt>
      <trkpt lat="44.96935" lon="4.67589">
        <ele>723.7</ele>
      </trkpt>
      <trkpt lat="44.96939" lon="4.676">
        <ele>723.9</ele>
      </trkpt>
      <trkpt lat="44.96946" lon="4.67607">
        <ele>723.1</ele>
      </trkpt>
      <trkpt lat="44.96954" lon="4.67615">
        <ele>722.1</ele>
      </trkpt>
      <trkpt lat="44.96968" lon="4.67621">
        <ele>719.9</ele>
      </trkpt>
      <trkpt lat="44.96974" lon="4.67626">
        <ele>719.6</ele>
      </trkpt>
      <trkpt lat="44.97005" lon="4.67649">
        <ele>718.3</ele>
      </trkpt>
      <trkpt lat="44.9701" lon="4.67657">
        <ele>719.2</ele>
      </trkpt>
      <trkpt lat="44.97014" lon="4.67654">
        <ele>718.4</ele>
      </trkpt>
      <trkpt lat="44.97032" lon="4.67647">
        <ele>715.7</ele>
      </trkpt>
      <trkpt lat="44.97046" lon="4.67644">
        <ele>714</ele>
      </trkpt>
      <trkpt lat="44.97065" lon="4.67643">
        <ele>712.2</ele>
      </trkpt>
      <trkpt lat="44.97076" lon="4.67642">
        <ele>711.3</ele>
      </trkpt>
      <trkpt lat="44.97089" lon="4.67645">
        <ele>710.5</ele>
      </trkpt>
      <trkpt lat="44.97106" lon="4.67651">
        <ele>709.2</ele>
      </trkpt>
      <trkpt lat="44.97127" lon="4.67665">
        <ele>708.1</ele>
      </trkpt>
      <trkpt lat="44.97146" lon="4.6768">
        <ele>706.2</ele>
      </trkpt>
      <trkpt lat="44.97161" lon="4.67691">
        <ele>704.6</ele>
      </trkpt>
      <trkpt lat="44.9718" lon="4.67702">
        <ele>703.2</ele>
      </trkpt>
      <trkpt lat="44.97194" lon="4.67709">
        <ele>702.4</ele>
      </trkpt>
      <trkpt lat="44.97209" lon="4.67715">
        <ele>701.7</ele>
      </trkpt>
      <trkpt lat="44.97223" lon="4.67721">
        <ele>701.1</ele>
      </trkpt>
      <trkpt lat="44.97228" lon="4.67722">
        <ele>700.8</ele>
      </trkpt>
      <trkpt lat="44.97243" lon="4.6773">
        <ele>700.5</ele>
      </trkpt>
      <trkpt lat="44.97263" lon="4.67739">
        <ele>700</ele>
      </trkpt>
      <trkpt lat="44.97277" lon="4.67745">
        <ele>699.5</ele>
      </trkpt>
      <trkpt lat="44.97289" lon="4.67749">
        <ele>699.1</ele>
      </trkpt>
      <trkpt lat="44.97298" lon="4.67751">
        <ele>698.6</ele>
      </trkpt>
      <trkpt lat="44.97316" lon="4.67756">
        <ele>697.6</ele>
      </trkpt>
      <trkpt lat="44.97329" lon="4.67758">
        <ele>696.8</ele>
      </trkpt>
      <trkpt lat="44.97342" lon="4.67759">
        <ele>695.5</ele>
      </trkpt>
      <trkpt lat="44.97358" lon="4.67762">
        <ele>693.6</ele>
      </trkpt>
      <trkpt lat="44.97363" lon="4.67763">
        <ele>693.1</ele>
      </trkpt>
      <trkpt lat="44.9737" lon="4.67765">
        <ele>692.3</ele>
      </trkpt>
      <trkpt lat="44.97388" lon="4.67771">
        <ele>690.2</ele>
      </trkpt>
      <trkpt lat="44.97405" lon="4.67775">
        <ele>688.2</ele>
      </trkpt>
      <trkpt lat="44.97407" lon="4.67777">
        <ele>687.9</ele>
      </trkpt>
      <trkpt lat="44.9742" lon="4.67779">
        <ele>686.4</ele>
      </trkpt>
      <trkpt lat="44.97431" lon="4.67784">
        <ele>685.7</ele>
      </trkpt>
      <trkpt lat="44.97446" lon="4.67798">
        <ele>684.8</ele>
      </trkpt>
      <trkpt lat="44.97464" lon="4.67818">
        <ele>683.7</ele>
      </trkpt>
      <trkpt lat="44.97496" lon="4.67831">
        <ele>681.4</ele>
      </trkpt>
      <trkpt lat="44.97517" lon="4.6784">
        <ele>679.4</ele>
      </trkpt>
      <trkpt lat="44.97527" lon="4.67844">
        <ele>678.5</ele>
      </trkpt>
      <trkpt lat="44.97561" lon="4.67849">
        <ele>676.1</ele>
      </trkpt>
      <trkpt lat="44.97567" lon="4.67849">
        <ele>675.8</ele>
      </trkpt>
      <trkpt lat="44.9758" lon="4.6785">
        <ele>675</ele>
      </trkpt>
      <trkpt lat="44.97584" lon="4.6785">
        <ele>674.8</ele>
      </trkpt>
      <trkpt lat="44.97591" lon="4.6785">
        <ele>673.8</ele>
      </trkpt>
      <trkpt lat="44.97598" lon="4.6785">
        <ele>672.9</ele>
      </trkpt>
      <trkpt lat="44.97604" lon="4.67851">
        <ele>672.1</ele>
      </trkpt>
      <trkpt lat="44.97614" lon="4.67852">
        <ele>670.8</ele>
      </trkpt>
      <trkpt lat="44.97621" lon="4.67852">
        <ele>669.9</ele>
      </trkpt>
      <trkpt lat="44.97627" lon="4.67853">
        <ele>669.1</ele>
      </trkpt>
      <trkpt lat="44.97634" lon="4.67854">
        <ele>668.2</ele>
      </trkpt>
      <trkpt lat="44.97637" lon="4.67854">
        <ele>667.8</ele>
      </trkpt>
      <trkpt lat="44.97643" lon="4.67854">
        <ele>667.1</ele>
        <extensions>
          <visugpx:TrkExtension xmlns:visugpx="https://www.visugpx.com/editgpx/">
            <visugpx:node>19</visugpx:node>
            </visugpx:TrkExtension>
        </extensions>
      </trkpt>
      <trkpt lat="44.97644" lon="4.67854">
        <ele>666.9</ele>
      </trkpt>
      <trkpt lat="44.9765" lon="4.67854">
        <ele>666.1</ele>
      </trkpt>
      <trkpt lat="44.97656" lon="4.67856">
        <ele>665.3</ele>
      </trkpt>
      <trkpt lat="44.97659" lon="4.67857">
        <ele>664.8</ele>
      </trkpt>
      <trkpt lat="44.97666" lon="4.6786">
        <ele>663.9</ele>
      </trkpt>
      <trkpt lat="44.9767" lon="4.67862">
        <ele>662.9</ele>
      </trkpt>
      <trkpt lat="44.97673" lon="4.67864">
        <ele>661.9</ele>
      </trkpt>
      <trkpt lat="44.97677" lon="4.67867">
        <ele>660.8</ele>
      </trkpt>
      <trkpt lat="44.9768" lon="4.6787">
        <ele>659.8</ele>
      </trkpt>
      <trkpt lat="44.97684" lon="4.67874">
        <ele>658.8</ele>
      </trkpt>
      <trkpt lat="44.97688" lon="4.67879">
        <ele>657.6</ele>
      </trkpt>
      <trkpt lat="44.97693" lon="4.67888">
        <ele>656.1</ele>
      </trkpt>
      <trkpt lat="44.97695" lon="4.67893">
        <ele>655.2</ele>
      </trkpt>
      <trkpt lat="44.97698" lon="4.67898">
        <ele>654.5</ele>
      </trkpt>
      <trkpt lat="44.977" lon="4.67904">
        <ele>653.8</ele>
      </trkpt>
      <trkpt lat="44.97704" lon="4.67911">
        <ele>652.6</ele>
      </trkpt>
      <trkpt lat="44.97706" lon="4.67914">
        <ele>652.2</ele>
      </trkpt>
      <trkpt lat="44.97708" lon="4.67917">
        <ele>651.6</ele>
      </trkpt>
      <trkpt lat="44.97711" lon="4.67921">
        <ele>650.3</ele>
      </trkpt>
      <trkpt lat="44.97718" lon="4.67928">
        <ele>647.8</ele>
      </trkpt>
      <trkpt lat="44.97728" lon="4.67939">
        <ele>644.6</ele>
      </trkpt>
      <trkpt lat="44.97737" lon="4.67949">
        <ele>641.9</ele>
      </trkpt>
      <trkpt lat="44.97739" lon="4.67951">
        <ele>641.3</ele>
      </trkpt>
      <trkpt lat="44.97746" lon="4.67957">
        <ele>639.7</ele>
      </trkpt>
      <trkpt lat="44.97752" lon="4.67961">
        <ele>638.3</ele>
      </trkpt>
      <trkpt lat="44.97807" lon="4.67834">
        <ele>624.1</ele>
      </trkpt>
      <trkpt lat="44.97815" lon="4.67841">
        <ele>621.6</ele>
      </trkpt>
      <trkpt lat="44.97822" lon="4.67849">
        <ele>619.2</ele>
      </trkpt>
      <trkpt lat="44.97829" lon="4.67858">
        <ele>616.9</ele>
      </trkpt>
      <trkpt lat="44.97832" lon="4.67868">
        <ele>615.6</ele>
      </trkpt>
      <trkpt lat="44.97834" lon="4.67881">
        <ele>614.7</ele>
      </trkpt>
      <trkpt lat="44.97834" lon="4.679">
        <ele>614.1</ele>
      </trkpt>
      <trkpt lat="44.97833" lon="4.67908">
        <ele>614.2</ele>
      </trkpt>
      <trkpt lat="44.97833" lon="4.67912">
        <ele>614.2</ele>
      </trkpt>
      <trkpt lat="44.97834" lon="4.67919">
        <ele>613.7</ele>
      </trkpt>
      <trkpt lat="44.97836" lon="4.67924">
        <ele>612.4</ele>
      </trkpt>
      <trkpt lat="44.97839" lon="4.67926">
        <ele>611.2</ele>
      </trkpt>
      <trkpt lat="44.97848" lon="4.67928">
        <ele>608</ele>
      </trkpt>
      <trkpt lat="44.97862" lon="4.67928">
        <ele>603.2</ele>
      </trkpt>
      <trkpt lat="44.97872" lon="4.67925">
        <ele>599.8</ele>
      </trkpt>
      <trkpt lat="44.9788" lon="4.67921">
        <ele>597.5</ele>
      </trkpt>
      <trkpt lat="44.97885" lon="4.67915">
        <ele>595.9</ele>
      </trkpt>
      <trkpt lat="44.9789" lon="4.67907">
        <ele>594.4</ele>
      </trkpt>
      <trkpt lat="44.97892" lon="4.67898">
        <ele>593.6</ele>
      </trkpt>
      <trkpt lat="44.97893" lon="4.67888">
        <ele>593.3</ele>
      </trkpt>
      <trkpt lat="44.97896" lon="4.67873">
        <ele>592.6</ele>
      </trkpt>
      <trkpt lat="44.97899" lon="4.67879">
        <ele>591.4</ele>
      </trkpt>
      <trkpt lat="44.97902" lon="4.67887">
        <ele>590.3</ele>
      </trkpt>
      <trkpt lat="44.97903" lon="4.67892">
        <ele>589.7</ele>
      </trkpt>
      <trkpt lat="44.97905" lon="4.67898">
        <ele>589</ele>
      </trkpt>
      <trkpt lat="44.97909" lon="4.67906">
        <ele>587.8</ele>
      </trkpt>
      <trkpt lat="44.97915" lon="4.67917">
        <ele>585.6</ele>
      </trkpt>
      <trkpt lat="44.97924" lon="4.67931">
        <ele>582.6</ele>
      </trkpt>
      <trkpt lat="44.97932" lon="4.67947">
        <ele>580.1</ele>
      </trkpt>
      <trkpt lat="44.97937" lon="4.67942">
        <ele>579.5</ele>
      </trkpt>
      <trkpt lat="44.97945" lon="4.67935">
        <ele>578.3</ele>
      </trkpt>
      <trkpt lat="44.97948" lon="4.67931">
        <ele>577.8</ele>
      </trkpt>
      <trkpt lat="44.97951" lon="4.67924">
        <ele>577.6</ele>
      </trkpt>
      <trkpt lat="44.97954" lon="4.67915">
        <ele>577.4</ele>
      </trkpt>
      <trkpt lat="44.97955" lon="4.67906">
        <ele>577.2</ele>
      </trkpt>
      <trkpt lat="44.97955" lon="4.67896">
        <ele>577.1</ele>
      </trkpt>
      <trkpt lat="44.97954" lon="4.67882">
        <ele>577.2</ele>
      </trkpt>
      <trkpt lat="44.97948" lon="4.67845">
        <ele>578.4</ele>
      </trkpt>
      <trkpt lat="44.97942" lon="4.67813">
        <ele>577.6</ele>
      </trkpt>
      <trkpt lat="44.97938" lon="4.67785">
        <ele>576</ele>
      </trkpt>
      <trkpt lat="44.97942" lon="4.67785">
        <ele>575.1</ele>
      </trkpt>
      <trkpt lat="44.97947" lon="4.67783">
        <ele>573.9</ele>
      </trkpt>
      <trkpt lat="44.97958" lon="4.67781">
        <ele>571.4</ele>
      </trkpt>
      <trkpt lat="44.97963" lon="4.67781">
        <ele>570.2</ele>
      </trkpt>
      <trkpt lat="44.97963" lon="4.67773">
        <ele>569.6</ele>
      </trkpt>
      <trkpt lat="44.97962" lon="4.67764">
        <ele>569</ele>
      </trkpt>
      <trkpt lat="44.97957" lon="4.67746">
        <ele>568.2</ele>
      </trkpt>
      <trkpt lat="44.97963" lon="4.67749">
        <ele>567.4</ele>
      </trkpt>
      <trkpt lat="44.97968" lon="4.6775">
        <ele>566.5</ele>
      </trkpt>
      <trkpt lat="44.97974" lon="4.67748">
        <ele>565.1</ele>
      </trkpt>
      <trkpt lat="44.97981" lon="4.67746">
        <ele>563.3</ele>
      </trkpt>
      <trkpt lat="44.97988" lon="4.67746">
        <ele>562</ele>
      </trkpt>
      <trkpt lat="44.97994" lon="4.67747">
        <ele>560.8</ele>
      </trkpt>
      <trkpt lat="44.98002" lon="4.67752">
        <ele>559.8</ele>
      </trkpt>
      <trkpt lat="44.98005" lon="4.67754">
        <ele>559.6</ele>
      </trkpt>
      <trkpt lat="44.98012" lon="4.67762">
        <ele>559</ele>
      </trkpt>
      <trkpt lat="44.98025" lon="4.67779">
        <ele>558.1</ele>
      </trkpt>
      <trkpt lat="44.98036" lon="4.67796">
        <ele>557.3</ele>
      </trkpt>
      <trkpt lat="44.9804" lon="4.67801">
        <ele>557</ele>
      </trkpt>
      <trkpt lat="44.98044" lon="4.67805">
        <ele>556.6</ele>
      </trkpt>
      <trkpt lat="44.9805" lon="4.67808">
        <ele>555.6</ele>
      </trkpt>
      <trkpt lat="44.98053" lon="4.67809">
        <ele>555.2</ele>
      </trkpt>
      <trkpt lat="44.98056" lon="4.6781">
        <ele>554.6</ele>
      </trkpt>
      <trkpt lat="44.98061" lon="4.67811">
        <ele>553.8</ele>
      </trkpt>
      <trkpt lat="44.98067" lon="4.67815">
        <ele>553</ele>
      </trkpt>
      <trkpt lat="44.98077" lon="4.67826">
        <ele>551.7</ele>
      </trkpt>
      <trkpt lat="44.98087" lon="4.67836">
        <ele>550.4</ele>
      </trkpt>
      <trkpt lat="44.98098" lon="4.67845">
        <ele>548.4</ele>
      </trkpt>
      <trkpt lat="44.98102" lon="4.67849">
        <ele>547.5</ele>
      </trkpt>
      <trkpt lat="44.98108" lon="4.67856">
        <ele>546.4</ele>
      </trkpt>
      <trkpt lat="44.98113" lon="4.67862">
        <ele>545.5</ele>
      </trkpt>
      <trkpt lat="44.98118" lon="4.67871">
        <ele>544.7</ele>
      </trkpt>
      <trkpt lat="44.98126" lon="4.6789">
        <ele>543.2</ele>
      </trkpt>
      <trkpt lat="44.98132" lon="4.67906">
        <ele>542</ele>
      </trkpt>
      <trkpt lat="44.98135" lon="4.67911">
        <ele>541.4</ele>
      </trkpt>
      <trkpt lat="44.98138" lon="4.67914">
        <ele>540.9</ele>
      </trkpt>
      <trkpt lat="44.98142" lon="4.67917">
        <ele>540</ele>
      </trkpt>
      <trkpt lat="44.98145" lon="4.67918">
        <ele>539.3</ele>
      </trkpt>
      <trkpt lat="44.98153" lon="4.67922">
        <ele>537.7</ele>
      </trkpt>
      <trkpt lat="44.98164" lon="4.67928">
        <ele>535.1</ele>
      </trkpt>
      <trkpt lat="44.9817" lon="4.67932">
        <ele>533.7</ele>
      </trkpt>
      <trkpt lat="44.98184" lon="4.67942">
        <ele>530.9</ele>
      </trkpt>
      <trkpt lat="44.9819" lon="4.67945">
        <ele>529.8</ele>
      </trkpt>
      <trkpt lat="44.98196" lon="4.67947">
        <ele>528.9</ele>
      </trkpt>
      <trkpt lat="44.982" lon="4.67949">
        <ele>528.1</ele>
      </trkpt>
      <trkpt lat="44.98205" lon="4.6795">
        <ele>527.2</ele>
      </trkpt>
      <trkpt lat="44.98211" lon="4.67951">
        <ele>526.2</ele>
      </trkpt>
      <trkpt lat="44.98216" lon="4.67951">
        <ele>525.3</ele>
      </trkpt>
      <trkpt lat="44.98222" lon="4.67952">
        <ele>524.5</ele>
      </trkpt>
      <trkpt lat="44.98226" lon="4.67951">
        <ele>523.9</ele>
      </trkpt>
      <trkpt lat="44.98232" lon="4.6795">
        <ele>523</ele>
      </trkpt>
      <trkpt lat="44.98237" lon="4.67949">
        <ele>522.1</ele>
      </trkpt>
      <trkpt lat="44.98241" lon="4.67948">
        <ele>521.5</ele>
      </trkpt>
      <trkpt lat="44.98246" lon="4.67947">
        <ele>520.9</ele>
      </trkpt>
      <trkpt lat="44.98251" lon="4.67945">
        <ele>520.2</ele>
      </trkpt>
      <trkpt lat="44.98254" lon="4.67942">
        <ele>519.9</ele>
      </trkpt>
      <trkpt lat="44.98258" lon="4.6794">
        <ele>519.5</ele>
      </trkpt>
      <trkpt lat="44.98262" lon="4.67938">
        <ele>519</ele>
      </trkpt>
      <trkpt lat="44.98268" lon="4.67936">
        <ele>518.3</ele>
      </trkpt>
      <trkpt lat="44.98272" lon="4.67934">
        <ele>517.8</ele>
      </trkpt>
      <trkpt lat="44.98276" lon="4.67931">
        <ele>517.2</ele>
      </trkpt>
      <trkpt lat="44.9828" lon="4.67928">
        <ele>516.7</ele>
      </trkpt>
      <trkpt lat="44.98285" lon="4.67926">
        <ele>516</ele>
      </trkpt>
      <trkpt lat="44.98287" lon="4.67925">
        <ele>515.6</ele>
      </trkpt>
      <trkpt lat="44.9829" lon="4.67923">
        <ele>515.2</ele>
      </trkpt>
      <trkpt lat="44.98296" lon="4.6792">
        <ele>514.4</ele>
      </trkpt>
      <trkpt lat="44.98299" lon="4.67918">
        <ele>513.8</ele>
      </trkpt>
      <trkpt lat="44.98301" lon="4.67916">
        <ele>513.5</ele>
      </trkpt>
      <trkpt lat="44.98305" lon="4.67915">
        <ele>512.7</ele>
      </trkpt>
      <trkpt lat="44.98309" lon="4.67913">
        <ele>511.9</ele>
      </trkpt>
      <trkpt lat="44.98312" lon="4.67913">
        <ele>511.3</ele>
      </trkpt>
      <trkpt lat="44.98316" lon="4.67912">
        <ele>510.5</ele>
      </trkpt>
      <trkpt lat="44.98321" lon="4.67911">
        <ele>509.7</ele>
      </trkpt>
      <trkpt lat="44.98325" lon="4.6791">
        <ele>508.8</ele>
      </trkpt>
      <trkpt lat="44.9833" lon="4.6791">
        <ele>507.9</ele>
      </trkpt>
      <trkpt lat="44.98341" lon="4.67911">
        <ele>505.7</ele>
      </trkpt>
      <trkpt lat="44.98348" lon="4.67911">
        <ele>504.1</ele>
      </trkpt>
      <trkpt lat="44.98355" lon="4.67912">
        <ele>502.6</ele>
      </trkpt>
      <trkpt lat="44.9836" lon="4.67913">
        <ele>501.4</ele>
      </trkpt>
      <trkpt lat="44.98367" lon="4.67916">
        <ele>500.4</ele>
      </trkpt>
      <trkpt lat="44.98373" lon="4.6792">
        <ele>499.2</ele>
      </trkpt>
      <trkpt lat="44.98382" lon="4.67923">
        <ele>497.4</ele>
      </trkpt>
      <trkpt lat="44.98388" lon="4.67926">
        <ele>496.3</ele>
      </trkpt>
      <trkpt lat="44.98394" lon="4.67928">
        <ele>495.3</ele>
      </trkpt>
      <trkpt lat="44.98399" lon="4.6793">
        <ele>494.4</ele>
      </trkpt>
      <trkpt lat="44.98403" lon="4.67931">
        <ele>493.5</ele>
      </trkpt>
      <trkpt lat="44.9841" lon="4.67933">
        <ele>492.3</ele>
      </trkpt>
      <trkpt lat="44.98415" lon="4.67936">
        <ele>491.3</ele>
      </trkpt>
      <trkpt lat="44.98422" lon="4.67938">
        <ele>490.5</ele>
      </trkpt>
      <trkpt lat="44.98427" lon="4.6794">
        <ele>489.8</ele>
      </trkpt>
      <trkpt lat="44.98431" lon="4.67941">
        <ele>489.3</ele>
      </trkpt>
      <trkpt lat="44.98435" lon="4.67942">
        <ele>488.7</ele>
      </trkpt>
      <trkpt lat="44.98438" lon="4.67943">
        <ele>488.2</ele>
      </trkpt>
      <trkpt lat="44.98442" lon="4.67943">
        <ele>487.5</ele>
      </trkpt>
      <trkpt lat="44.98444" lon="4.6794">
        <ele>487</ele>
      </trkpt>
      <trkpt lat="44.98443" lon="4.67934">
        <ele>486.5</ele>
      </trkpt>
      <trkpt lat="44.98443" lon="4.67928">
        <ele>486.1</ele>
      </trkpt>
      <trkpt lat="44.9844" lon="4.67921">
        <ele>486</ele>
      </trkpt>
      <trkpt lat="44.98438" lon="4.67916">
        <ele>485.9</ele>
      </trkpt>
      <trkpt lat="44.98435" lon="4.67912">
        <ele>485.8</ele>
      </trkpt>
      <trkpt lat="44.98431" lon="4.67907">
        <ele>485.7</ele>
      </trkpt>
      <trkpt lat="44.98423" lon="4.67897">
        <ele>485.6</ele>
      </trkpt>
      <trkpt lat="44.98419" lon="4.67893">
        <ele>485.5</ele>
      </trkpt>
      <trkpt lat="44.9841" lon="4.67882">
        <ele>486</ele>
      </trkpt>
      <trkpt lat="44.98408" lon="4.67879">
        <ele>486.1</ele>
      </trkpt>
      <trkpt lat="44.98407" lon="4.67872">
        <ele>485.5</ele>
      </trkpt>
      <trkpt lat="44.98407" lon="4.67871">
        <ele>485.3</ele>
      </trkpt>
      <trkpt lat="44.98408" lon="4.67868">
        <ele>484.8</ele>
      </trkpt>
      <trkpt lat="44.9841" lon="4.67868">
        <ele>484.3</ele>
      </trkpt>
      <trkpt lat="44.98412" lon="4.67868">
        <ele>483.6</ele>
      </trkpt>
      <trkpt lat="44.98414" lon="4.67868">
        <ele>483.2</ele>
      </trkpt>
      <trkpt lat="44.98416" lon="4.67869">
        <ele>482.8</ele>
      </trkpt>
      <trkpt lat="44.98422" lon="4.67871">
        <ele>482.4</ele>
      </trkpt>
      <trkpt lat="44.98428" lon="4.67874">
        <ele>482</ele>
      </trkpt>
      <trkpt lat="44.98432" lon="4.67875">
        <ele>481.6</ele>
      </trkpt>
      <trkpt lat="44.98435" lon="4.67876">
        <ele>481.4</ele>
      </trkpt>
      <trkpt lat="44.98438" lon="4.67876">
        <ele>481</ele>
      </trkpt>
      <trkpt lat="44.98441" lon="4.67876">
        <ele>480.7</ele>
      </trkpt>
      <trkpt lat="44.98445" lon="4.67876">
        <ele>480.2</ele>
      </trkpt>
      <trkpt lat="44.9845" lon="4.67876">
        <ele>479.7</ele>
      </trkpt>
      <trkpt lat="44.98453" lon="4.67877">
        <ele>479.3</ele>
      </trkpt>
      <trkpt lat="44.98458" lon="4.67878">
        <ele>478.9</ele>
      </trkpt>
      <trkpt lat="44.98462" lon="4.67878">
        <ele>478.4</ele>
      </trkpt>
      <trkpt lat="44.98469" lon="4.6788">
        <ele>477.7</ele>
      </trkpt>
      <trkpt lat="44.98477" lon="4.67881">
        <ele>476.9</ele>
      </trkpt>
      <trkpt lat="44.98483" lon="4.67883">
        <ele>476.4</ele>
      </trkpt>
      <trkpt lat="44.98489" lon="4.67886">
        <ele>475.8</ele>
      </trkpt>
      <trkpt lat="44.98496" lon="4.67889">
        <ele>475.2</ele>
      </trkpt>
      <trkpt lat="44.98502" lon="4.67892">
        <ele>474.7</ele>
      </trkpt>
      <trkpt lat="44.98507" lon="4.67895">
        <ele>474.4</ele>
      </trkpt>
      <trkpt lat="44.98514" lon="4.67898">
        <ele>473.8</ele>
      </trkpt>
      <trkpt lat="44.98522" lon="4.67902">
        <ele>473.1</ele>
      </trkpt>
      <trkpt lat="44.98528" lon="4.67906">
        <ele>472.7</ele>
      </trkpt>
      <trkpt lat="44.98528" lon="4.67909">
        <ele>472.8</ele>
      </trkpt>
      <trkpt lat="44.98529" lon="4.67912">
        <ele>472.9</ele>
      </trkpt>
      <trkpt lat="44.9853" lon="4.67914">
        <ele>472.9</ele>
      </trkpt>
      <trkpt lat="44.98531" lon="4.67916">
        <ele>472.9</ele>
      </trkpt>
      <trkpt lat="44.98532" lon="4.67919">
        <ele>472.8</ele>
      </trkpt>
      <trkpt lat="44.98534" lon="4.6792">
        <ele>472.7</ele>
      </trkpt>
      <trkpt lat="44.98535" lon="4.67922">
        <ele>472.5</ele>
      </trkpt>
      <trkpt lat="44.98536" lon="4.67923">
        <ele>472.4</ele>
      </trkpt>
      <trkpt lat="44.98538" lon="4.67924">
        <ele>472.2</ele>
      </trkpt>
      <trkpt lat="44.9854" lon="4.67925">
        <ele>472</ele>
      </trkpt>
      <trkpt lat="44.98542" lon="4.67927">
        <ele>471.8</ele>
      </trkpt>
      <trkpt lat="44.98544" lon="4.67928">
        <ele>471.6</ele>
        <extensions>
          <visugpx:TrkExtension xmlns:visugpx="https://www.visugpx.com/editgpx/">
            <visugpx:node>20</visugpx:node>
            </visugpx:TrkExtension>
        </extensions>
      </trkpt>
      <trkpt lat="44.98544" lon="4.67928">
        <ele>471.5</ele>
      </trkpt>
      <trkpt lat="44.98548" lon="4.6793">
        <ele>471.1</ele>
      </trkpt>
      <trkpt lat="44.98552" lon="4.67932">
        <ele>470.6</ele>
      </trkpt>
      <trkpt lat="44.98557" lon="4.67937">
        <ele>470.1</ele>
      </trkpt>
      <trkpt lat="44.98556" lon="4.67944">
        <ele>470.4</ele>
      </trkpt>
      <trkpt lat="44.98557" lon="4.67952">
        <ele>470.7</ele>
      </trkpt>
      <trkpt lat="44.98557" lon="4.67956">
        <ele>470.8</ele>
      </trkpt>
      <trkpt lat="44.98558" lon="4.67959">
        <ele>470.7</ele>
      </trkpt>
      <trkpt lat="44.98559" lon="4.67961">
        <ele>470.6</ele>
      </trkpt>
      <trkpt lat="44.98561" lon="4.67963">
        <ele>470.4</ele>
      </trkpt>
      <trkpt lat="44.98563" lon="4.67964">
        <ele>470.2</ele>
      </trkpt>
      <trkpt lat="44.98566" lon="4.67965">
        <ele>469.9</ele>
      </trkpt>
      <trkpt lat="44.98569" lon="4.67965">
        <ele>469.5</ele>
      </trkpt>
      <trkpt lat="44.98572" lon="4.67964">
        <ele>469.1</ele>
      </trkpt>
      <trkpt lat="44.98575" lon="4.67964">
        <ele>468.8</ele>
      </trkpt>
      <trkpt lat="44.98581" lon="4.67962">
        <ele>467.9</ele>
      </trkpt>
      <trkpt lat="44.98589" lon="4.67959">
        <ele>467.4</ele>
      </trkpt>
      <trkpt lat="44.986" lon="4.67955">
        <ele>467.2</ele>
      </trkpt>
      <trkpt lat="44.98607" lon="4.67952">
        <ele>467</ele>
      </trkpt>
      <trkpt lat="44.98616" lon="4.6795">
        <ele>466.8</ele>
      </trkpt>
      <trkpt lat="44.98626" lon="4.67946">
        <ele>466.6</ele>
      </trkpt>
      <trkpt lat="44.98634" lon="4.67943">
        <ele>466.3</ele>
      </trkpt>
      <trkpt lat="44.98641" lon="4.67941">
        <ele>466.2</ele>
      </trkpt>
      <trkpt lat="44.98647" lon="4.67937">
        <ele>466</ele>
      </trkpt>
      <trkpt lat="44.9865" lon="4.67935">
        <ele>465.9</ele>
      </trkpt>
      <trkpt lat="44.98656" lon="4.67932">
        <ele>465.7</ele>
      </trkpt>
      <trkpt lat="44.98661" lon="4.67929">
        <ele>465.5</ele>
      </trkpt>
      <trkpt lat="44.98668" lon="4.67926">
        <ele>465.3</ele>
      </trkpt>
      <trkpt lat="44.98672" lon="4.67926">
        <ele>465.1</ele>
      </trkpt>
      <trkpt lat="44.98677" lon="4.67927">
        <ele>465</ele>
      </trkpt>
      <trkpt lat="44.98678" lon="4.67943">
        <ele>465.4</ele>
      </trkpt>
      <trkpt lat="44.98679" lon="4.6795">
        <ele>465.6</ele>
      </trkpt>
      <trkpt lat="44.98679" lon="4.67955">
        <ele>465.7</ele>
      </trkpt>
      <trkpt lat="44.98679" lon="4.6796">
        <ele>465.9</ele>
        <extensions>
          <visugpx:TrkExtension xmlns:visugpx="https://www.visugpx.com/editgpx/">
            <visugpx:node>22</visugpx:node>
            </visugpx:TrkExtension>
        </extensions>
      </trkpt>
      <trkpt lat="44.98682" lon="4.67966">
        <ele>461</ele>
        <time>2002-02-17T12:19:55Z</time>
      </trkpt>
      <trkpt lat="44.98679" lon="4.67982">
        <ele>466.5</ele>
        <extensions>
          <visugpx:TrkExtension xmlns:visugpx="https://www.visugpx.com/editgpx/">
            <visugpx:node>21</visugpx:node>
            </visugpx:TrkExtension>
        </extensions>
      </trkpt>
      <trkpt lat="44.9868" lon="4.67986">
        <ele>463</ele>
        <time>2002-02-17T12:20:15Z</time>
      </trkpt>
      <trkpt lat="44.98672" lon="4.68002">
        <ele>465</ele>
        <time>2002-02-17T12:20:35Z</time>
      </trkpt>
      <trkpt lat="44.98664" lon="4.68017">
        <ele>467</ele>
        <time>2002-02-17T12:20:55Z</time>
      </trkpt>
      <trkpt lat="44.98654" lon="4.68037">
        <ele>469</ele>
        <time>2002-02-17T12:21:15Z</time>
      </trkpt>
      <trkpt lat="44.98648" lon="4.68061">
        <ele>471</ele>
        <time>2002-02-17T12:21:35Z</time>
      </trkpt>
      <trkpt lat="44.98644" lon="4.68084">
        <ele>473</ele>
        <time>2002-02-17T12:21:55Z</time>
      </trkpt>
      <trkpt lat="44.98644" lon="4.68108">
        <ele>474</ele>
        <time>2002-02-17T12:22:15Z</time>
      </trkpt>
      <trkpt lat="44.98653" lon="4.68127">
        <ele>475</ele>
        <time>2002-02-17T12:22:35Z</time>
      </trkpt>
      <trkpt lat="44.98659" lon="4.68149">
        <ele>476</ele>
        <time>2002-02-17T12:22:55Z</time>
      </trkpt>
      <trkpt lat="44.98665" lon="4.68172">
        <ele>477</ele>
        <time>2002-02-17T12:23:15Z</time>
      </trkpt>
      <trkpt lat="44.98674" lon="4.68194">
        <ele>478</ele>
        <time>2002-02-17T12:23:35Z</time>
      </trkpt>
      <trkpt lat="44.98678" lon="4.68213">
        <ele>479</ele>
        <time>2002-02-17T12:23:55Z</time>
      </trkpt>
      <trkpt lat="44.98682" lon="4.68235">
        <ele>478</ele>
        <time>2002-02-17T12:24:15Z</time>
      </trkpt>
      <trkpt lat="44.98683" lon="4.68256">
        <ele>478</ele>
        <time>2002-02-17T12:24:35Z</time>
      </trkpt>
      <trkpt lat="44.98681" lon="4.68279">
        <ele>478</ele>
        <time>2002-02-17T12:24:55Z</time>
      </trkpt>
      <trkpt lat="44.98676" lon="4.68307">
        <ele>478</ele>
        <time>2002-02-17T12:25:15Z</time>
      </trkpt>
      <trkpt lat="44.98667" lon="4.68333">
        <ele>478</ele>
        <time>2002-02-17T12:25:35Z</time>
      </trkpt>
      <trkpt lat="44.98665" lon="4.68363">
        <ele>478</ele>
        <time>2002-02-17T12:25:55Z</time>
      </trkpt>
      <trkpt lat="44.98664" lon="4.68391">
        <ele>479</ele>
        <time>2002-02-17T12:26:15Z</time>
      </trkpt>
      <trkpt lat="44.98659" lon="4.68417">
        <ele>481</ele>
        <time>2002-02-17T12:26:35Z</time>
      </trkpt>
      <trkpt lat="44.98657" lon="4.68442">
        <ele>482</ele>
        <time>2002-02-17T12:26:55Z</time>
      </trkpt>
      <trkpt lat="44.98659" lon="4.68469">
        <ele>482</ele>
        <time>2002-02-17T12:27:15Z</time>
      </trkpt>
      <trkpt lat="44.98652" lon="4.68487">
        <ele>482</ele>
        <time>2002-02-17T12:27:35Z</time>
      </trkpt>
      <trkpt lat="44.98642" lon="4.68511">
        <ele>481</ele>
        <time>2002-02-17T12:27:55Z</time>
      </trkpt>
      <trkpt lat="44.98633" lon="4.68539">
        <ele>481</ele>
        <time>2002-02-17T12:28:15Z</time>
        <extensions>
          <visugpx:TrkExtension xmlns:visugpx="https://www.visugpx.com/editgpx/">
            <visugpx:node>21</visugpx:node>
            </visugpx:TrkExtension>
        </extensions>
      </trkpt>
    </trkseg>
  </trk>
</gpx>